<?xml version="1.0" encoding="UTF-8" standalone="no" ?>
<gpx xmlns="http://www.topografix.com/GPX/1/1" xmlns:xsi="http://www.w3.org/2001/XMLSchema-instance" xsi:schemaLocation="http://www.topografix.com/GPX/1/1 http://www.topografix.com/GPX/1/1/gpx.xsd" version="1.1" creator="VisuGPX - https://www.visugpx.com">
  <metadata>
    <name>Boucle VTT N°4 de Crest</name>
    <desc><![CDATA[Boucle vtt labélisée au départ de Crest en direction du village perché de Cobonne.]]></desc>
  </metadata>
  <trk>
    <name><![CDATA[CREST N4 Noir 22kms-730m-3H30-MNT]]></name>
    <trkseg>
      <trkpt lat="44.73016" lon="5.01626">
        <ele>183</ele>
      </trkpt>
      <trkpt lat="44.73026" lon="5.01633">
        <ele>183</ele>
      </trkpt>
      <trkpt lat="44.73032" lon="5.01639">
        <ele>183</ele>
        <time>2007-12-03T10:56:08Z</time>
      </trkpt>
      <trkpt lat="44.73093" lon="5.01562">
        <ele>183</ele>
        <time>2007-12-03T10:56:20Z</time>
      </trkpt>
      <trkpt lat="44.73109" lon="5.0154">
        <ele>182</ele>
        <time>2007-12-03T10:56:23Z</time>
      </trkpt>
      <trkpt lat="44.73155" lon="5.01475">
        <ele>182</ele>
        <time>2007-12-03T10:56:32Z</time>
      </trkpt>
      <trkpt lat="44.73221" lon="5.01388">
        <ele>182</ele>
        <time>2007-12-03T10:56:44Z</time>
      </trkpt>
      <trkpt lat="44.73287" lon="5.01303">
        <ele>182</ele>
        <time>2007-12-03T10:56:57Z</time>
      </trkpt>
      <trkpt lat="44.73304" lon="5.01286">
        <ele>182</ele>
        <time>2007-12-03T10:57:00Z</time>
      </trkpt>
      <trkpt lat="44.73336" lon="5.01255">
        <ele>183</ele>
        <time>2007-12-03T10:57:06Z</time>
      </trkpt>
      <trkpt lat="44.73352" lon="5.01243">
        <ele>184</ele>
        <time>2007-12-03T10:57:09Z</time>
      </trkpt>
      <trkpt lat="44.7338" lon="5.01233">
        <ele>185</ele>
        <time>2007-12-03T10:57:14Z</time>
      </trkpt>
      <trkpt lat="44.73404" lon="5.01209">
        <ele>187</ele>
        <time>2007-12-03T10:57:19Z</time>
      </trkpt>
      <trkpt lat="44.73437" lon="5.01143">
        <ele>187</ele>
        <time>2007-12-03T10:57:28Z</time>
      </trkpt>
      <trkpt lat="44.73458" lon="5.0114">
        <ele>187</ele>
        <time>2007-12-03T10:57:33Z</time>
      </trkpt>
      <trkpt lat="44.73471" lon="5.01156">
        <ele>188</ele>
        <time>2007-12-03T10:57:36Z</time>
      </trkpt>
      <trkpt lat="44.73493" lon="5.0118">
        <ele>189</ele>
        <time>2007-12-03T10:57:42Z</time>
      </trkpt>
      <trkpt lat="44.73509" lon="5.012">
        <ele>191</ele>
        <time>2007-12-03T10:57:47Z</time>
      </trkpt>
      <trkpt lat="44.7352" lon="5.0121">
        <ele>192</ele>
        <time>2007-12-03T10:57:50Z</time>
      </trkpt>
      <trkpt lat="44.73547" lon="5.01201">
        <ele>197</ele>
        <time>2007-12-03T10:57:58Z</time>
      </trkpt>
      <trkpt lat="44.7355" lon="5.01198">
        <ele>198</ele>
        <time>2007-12-03T10:57:59Z</time>
      </trkpt>
      <trkpt lat="44.73571" lon="5.01174">
        <ele>201</ele>
        <time>2007-12-03T10:58:07Z</time>
      </trkpt>
      <trkpt lat="44.73573" lon="5.01171">
        <ele>202</ele>
        <time>2007-12-03T10:58:08Z</time>
      </trkpt>
      <trkpt lat="44.73583" lon="5.01157">
        <ele>203</ele>
        <time>2007-12-03T10:58:12Z</time>
      </trkpt>
      <trkpt lat="44.73605" lon="5.01105">
        <ele>202</ele>
        <time>2007-12-03T10:58:24Z</time>
      </trkpt>
      <trkpt lat="44.73615" lon="5.01073">
        <ele>201</ele>
        <time>2007-12-03T10:58:30Z</time>
      </trkpt>
      <trkpt lat="44.7362" lon="5.01064">
        <ele>201</ele>
        <time>2007-12-03T10:58:32Z</time>
      </trkpt>
      <trkpt lat="44.73636" lon="5.01051">
        <ele>202</ele>
        <time>2007-12-03T10:58:36Z</time>
      </trkpt>
      <trkpt lat="44.73644" lon="5.01043">
        <ele>203</ele>
        <time>2007-12-03T10:58:38Z</time>
      </trkpt>
      <trkpt lat="44.73655" lon="5.0103">
        <ele>203</ele>
        <time>2007-12-03T10:58:41Z</time>
      </trkpt>
      <trkpt lat="44.7368" lon="5.00999">
        <ele>203</ele>
        <time>2007-12-03T10:58:49Z</time>
      </trkpt>
      <trkpt lat="44.73688" lon="5.00999">
        <ele>204</ele>
        <time>2007-12-03T10:58:51Z</time>
      </trkpt>
      <trkpt lat="44.73734" lon="5.00999">
        <ele>208</ele>
        <time>2007-12-03T10:59:02Z</time>
      </trkpt>
      <trkpt lat="44.73775" lon="5.00964">
        <ele>208</ele>
        <time>2007-12-03T10:59:14Z</time>
      </trkpt>
      <trkpt lat="44.73817" lon="5.00919">
        <ele>208</ele>
        <time>2007-12-03T10:59:26Z</time>
      </trkpt>
      <trkpt lat="44.73853" lon="5.00889">
        <ele>208</ele>
        <time>2007-12-03T10:59:35Z</time>
      </trkpt>
      <trkpt lat="44.7386" lon="5.0088">
        <ele>208</ele>
        <time>2007-12-03T10:59:37Z</time>
      </trkpt>
      <trkpt lat="44.73876" lon="5.0086">
        <ele>208</ele>
        <time>2007-12-03T10:59:42Z</time>
      </trkpt>
      <trkpt lat="44.73888" lon="5.00836">
        <ele>208</ele>
        <time>2007-12-03T10:59:47Z</time>
      </trkpt>
      <trkpt lat="44.73909" lon="5.00828">
        <ele>210</ele>
        <time>2007-12-03T10:59:53Z</time>
      </trkpt>
      <trkpt lat="44.7393" lon="5.00841">
        <ele>213</ele>
        <time>2007-12-03T11:00:00Z</time>
      </trkpt>
      <trkpt lat="44.73953" lon="5.00859">
        <ele>217</ele>
        <time>2007-12-03T11:00:08Z</time>
      </trkpt>
      <trkpt lat="44.73956" lon="5.00861">
        <ele>217</ele>
        <time>2007-12-03T11:00:09Z</time>
      </trkpt>
      <trkpt lat="44.73974" lon="5.0088">
        <ele>221</ele>
        <time>2007-12-03T11:00:16Z</time>
      </trkpt>
      <trkpt lat="44.73976" lon="5.00882">
        <ele>222</ele>
        <time>2007-12-03T11:00:17Z</time>
      </trkpt>
      <trkpt lat="44.73999" lon="5.00872">
        <ele>224</ele>
        <time>2007-12-03T11:00:27Z</time>
      </trkpt>
      <trkpt lat="44.74041" lon="5.00865">
        <ele>228</ele>
        <time>2007-12-03T11:00:40Z</time>
      </trkpt>
      <trkpt lat="44.74064" lon="5.00852">
        <ele>230</ele>
        <time>2007-12-03T11:00:50Z</time>
      </trkpt>
      <trkpt lat="44.74066" lon="5.00869">
        <ele>234</ele>
        <time>2007-12-03T11:00:57Z</time>
      </trkpt>
      <trkpt lat="44.74056" lon="5.00896">
        <ele>239</ele>
        <time>2007-12-03T11:01:08Z</time>
      </trkpt>
      <trkpt lat="44.74055" lon="5.00898">
        <ele>239</ele>
        <time>2007-12-03T11:01:09Z</time>
      </trkpt>
      <trkpt lat="44.74048" lon="5.00908">
        <ele>240</ele>
        <time>2007-12-03T11:01:14Z</time>
      </trkpt>
      <trkpt lat="44.74036" lon="5.0092">
        <ele>240</ele>
        <time>2007-12-03T11:01:21Z</time>
      </trkpt>
      <trkpt lat="44.74034" lon="5.00924">
        <ele>241</ele>
        <time>2007-12-03T11:01:23Z</time>
      </trkpt>
      <trkpt lat="44.74034" lon="5.00932">
        <ele>242</ele>
        <time>2007-12-03T11:01:26Z</time>
      </trkpt>
      <trkpt lat="44.74039" lon="5.00946">
        <ele>244</ele>
        <time>2007-12-03T11:01:34Z</time>
      </trkpt>
      <trkpt lat="44.74041" lon="5.00953">
        <ele>246</ele>
        <time>2007-12-03T11:01:36Z</time>
      </trkpt>
      <trkpt lat="44.74041" lon="5.0097">
        <ele>247</ele>
        <time>2007-12-03T11:01:42Z</time>
      </trkpt>
      <trkpt lat="44.74046" lon="5.01005">
        <ele>252</ele>
        <time>2007-12-03T11:01:52Z</time>
      </trkpt>
      <trkpt lat="44.74042" lon="5.01041">
        <ele>253</ele>
        <time>2007-12-03T11:02:03Z</time>
      </trkpt>
      <trkpt lat="44.7404" lon="5.01053">
        <ele>254</ele>
        <time>2007-12-03T11:02:07Z</time>
      </trkpt>
      <trkpt lat="44.74038" lon="5.01061">
        <ele>254</ele>
        <time>2007-12-03T11:02:10Z</time>
      </trkpt>
      <trkpt lat="44.74033" lon="5.01075">
        <ele>255</ele>
        <time>2007-12-03T11:02:15Z</time>
      </trkpt>
      <trkpt lat="44.74031" lon="5.01088">
        <ele>256</ele>
        <time>2007-12-03T11:02:19Z</time>
      </trkpt>
      <trkpt lat="44.74033" lon="5.01101">
        <ele>257</ele>
        <time>2007-12-03T11:02:23Z</time>
      </trkpt>
      <trkpt lat="44.74028" lon="5.01118">
        <ele>258</ele>
        <time>2007-12-03T11:02:28Z</time>
      </trkpt>
      <trkpt lat="44.74017" lon="5.01158">
        <ele>260</ele>
        <time>2007-12-03T11:02:39Z</time>
      </trkpt>
      <trkpt lat="44.74023" lon="5.012">
        <ele>260</ele>
        <time>2007-12-03T11:02:50Z</time>
      </trkpt>
      <trkpt lat="44.74034" lon="5.01243">
        <ele>261</ele>
        <time>2007-12-03T11:03:02Z</time>
      </trkpt>
      <trkpt lat="44.7404" lon="5.01273">
        <ele>263</ele>
        <time>2007-12-03T11:03:09Z</time>
      </trkpt>
      <trkpt lat="44.7404" lon="5.01284">
        <ele>264</ele>
        <time>2007-12-03T11:03:11Z</time>
      </trkpt>
      <trkpt lat="44.74028" lon="5.01336">
        <ele>268</ele>
        <time>2007-12-03T11:03:22Z</time>
      </trkpt>
      <trkpt lat="44.74022" lon="5.014">
        <ele>270</ele>
        <time>2007-12-03T11:03:35Z</time>
      </trkpt>
      <trkpt lat="44.74018" lon="5.01474">
        <ele>270</ele>
        <time>2007-12-03T11:03:49Z</time>
      </trkpt>
      <trkpt lat="44.74022" lon="5.01496">
        <ele>270</ele>
        <time>2007-12-03T11:03:53Z</time>
      </trkpt>
      <trkpt lat="44.74072" lon="5.0154">
        <ele>270</ele>
        <time>2007-12-03T11:04:06Z</time>
      </trkpt>
      <trkpt lat="44.74109" lon="5.01549">
        <ele>272</ele>
        <time>2007-12-03T11:04:15Z</time>
      </trkpt>
      <trkpt lat="44.7411" lon="5.01563">
        <ele>273</ele>
        <time>2007-12-03T11:04:19Z</time>
      </trkpt>
      <trkpt lat="44.74102" lon="5.01575">
        <ele>274</ele>
        <time>2007-12-03T11:04:22Z</time>
      </trkpt>
      <trkpt lat="44.74058" lon="5.01647">
        <ele>276</ele>
        <time>2007-12-03T11:04:38Z</time>
      </trkpt>
      <trkpt lat="44.74022" lon="5.01707">
        <ele>274</ele>
        <time>2007-12-03T11:04:49Z</time>
      </trkpt>
      <trkpt lat="44.7402" lon="5.01744">
        <ele>272</ele>
        <time>2007-12-03T11:04:54Z</time>
      </trkpt>
      <trkpt lat="44.74027" lon="5.01766">
        <ele>271</ele>
        <time>2007-12-03T11:04:57Z</time>
      </trkpt>
      <trkpt lat="44.74033" lon="5.01781">
        <ele>271</ele>
        <time>2007-12-03T11:04:59Z</time>
      </trkpt>
      <trkpt lat="44.74044" lon="5.01819">
        <ele>272</ele>
        <time>2007-12-03T11:05:04Z</time>
      </trkpt>
      <trkpt lat="44.7405" lon="5.01843">
        <ele>272</ele>
        <time>2007-12-03T11:05:07Z</time>
      </trkpt>
      <trkpt lat="44.74086" lon="5.01951">
        <ele>271</ele>
        <time>2007-12-03T11:05:22Z</time>
      </trkpt>
      <trkpt lat="44.74095" lon="5.01972">
        <ele>272</ele>
        <time>2007-12-03T11:05:25Z</time>
      </trkpt>
      <trkpt lat="44.74112" lon="5.02015">
        <ele>273</ele>
        <time>2007-12-03T11:05:31Z</time>
      </trkpt>
      <trkpt lat="44.7416" lon="5.02126">
        <ele>276</ele>
        <time>2007-12-03T11:05:47Z</time>
      </trkpt>
      <trkpt lat="44.74175" lon="5.02145">
        <ele>279</ele>
        <time>2007-12-03T11:05:51Z</time>
      </trkpt>
      <trkpt lat="44.74191" lon="5.02163">
        <ele>281</ele>
        <time>2007-12-03T11:05:55Z</time>
      </trkpt>
      <trkpt lat="44.74202" lon="5.02178">
        <ele>282</ele>
        <time>2007-12-03T11:05:58Z</time>
      </trkpt>
      <trkpt lat="44.742" lon="5.02208">
        <ele>282</ele>
        <time>2007-12-03T11:06:04Z</time>
      </trkpt>
      <trkpt lat="44.74174" lon="5.02233">
        <ele>280</ele>
        <time>2007-12-03T11:06:09Z</time>
      </trkpt>
      <trkpt lat="44.74169" lon="5.02239">
        <ele>279</ele>
        <time>2007-12-03T11:06:10Z</time>
      </trkpt>
      <trkpt lat="44.74163" lon="5.0225">
        <ele>280</ele>
        <time>2007-12-03T11:06:12Z</time>
      </trkpt>
      <trkpt lat="44.74161" lon="5.02263">
        <ele>280</ele>
        <time>2007-12-03T11:06:14Z</time>
      </trkpt>
      <trkpt lat="44.74161" lon="5.02282">
        <ele>281</ele>
        <time>2007-12-03T11:06:17Z</time>
      </trkpt>
      <trkpt lat="44.74165" lon="5.02303">
        <ele>282</ele>
        <time>2007-12-03T11:06:21Z</time>
      </trkpt>
      <trkpt lat="44.74171" lon="5.02353">
        <ele>284</ele>
        <time>2007-12-03T11:06:29Z</time>
      </trkpt>
      <trkpt lat="44.7417" lon="5.02365">
        <ele>285</ele>
        <time>2007-12-03T11:06:31Z</time>
      </trkpt>
      <trkpt lat="44.74163" lon="5.02401">
        <ele>287</ele>
        <time>2007-12-03T11:06:37Z</time>
      </trkpt>
      <trkpt lat="44.74155" lon="5.0243">
        <ele>289</ele>
        <time>2007-12-03T11:06:42Z</time>
      </trkpt>
      <trkpt lat="44.7415" lon="5.0246">
        <ele>290</ele>
        <time>2007-12-03T11:06:47Z</time>
      </trkpt>
      <trkpt lat="44.74144" lon="5.02489">
        <ele>291</ele>
        <time>2007-12-03T11:06:52Z</time>
      </trkpt>
      <trkpt lat="44.74143" lon="5.02501">
        <ele>291</ele>
        <time>2007-12-03T11:06:54Z</time>
      </trkpt>
      <trkpt lat="44.74131" lon="5.02586">
        <ele>292</ele>
        <time>2007-12-03T11:07:07Z</time>
      </trkpt>
      <trkpt lat="44.74128" lon="5.02606">
        <ele>293</ele>
        <time>2007-12-03T11:07:10Z</time>
      </trkpt>
      <trkpt lat="44.74127" lon="5.02619">
        <ele>293</ele>
        <time>2007-12-03T11:07:12Z</time>
      </trkpt>
      <trkpt lat="44.74124" lon="5.02644">
        <ele>294</ele>
        <time>2007-12-03T11:07:16Z</time>
      </trkpt>
      <trkpt lat="44.74121" lon="5.02668">
        <ele>296</ele>
        <time>2007-12-03T11:07:20Z</time>
      </trkpt>
      <trkpt lat="44.74122" lon="5.02687">
        <ele>297</ele>
        <time>2007-12-03T11:07:23Z</time>
      </trkpt>
      <trkpt lat="44.74124" lon="5.02698">
        <ele>298</ele>
        <time>2007-12-03T11:07:25Z</time>
      </trkpt>
      <trkpt lat="44.74139" lon="5.02716">
        <ele>301</ele>
        <time>2007-12-03T11:07:30Z</time>
      </trkpt>
      <trkpt lat="44.7417" lon="5.02729">
        <ele>302</ele>
        <time>2007-12-03T11:07:37Z</time>
      </trkpt>
      <trkpt lat="44.74226" lon="5.0275">
        <ele>303</ele>
        <time>2007-12-03T11:07:50Z</time>
      </trkpt>
      <trkpt lat="44.74246" lon="5.02759">
        <ele>303</ele>
        <time>2007-12-03T11:07:55Z</time>
      </trkpt>
      <trkpt lat="44.74263" lon="5.02766">
        <ele>303</ele>
        <time>2007-12-03T11:07:59Z</time>
      </trkpt>
      <trkpt lat="44.74291" lon="5.02767">
        <ele>302</ele>
        <time>2007-12-03T11:08:04Z</time>
      </trkpt>
      <trkpt lat="44.74306" lon="5.02773">
        <ele>303</ele>
        <time>2007-12-03T11:08:07Z</time>
      </trkpt>
      <trkpt lat="44.74333" lon="5.0278">
        <ele>305</ele>
        <time>2007-12-03T11:08:12Z</time>
      </trkpt>
      <trkpt lat="44.74369" lon="5.02789">
        <ele>307</ele>
        <time>2007-12-03T11:08:19Z</time>
      </trkpt>
      <trkpt lat="44.74393" lon="5.02797">
        <ele>308</ele>
        <time>2007-12-03T11:08:24Z</time>
      </trkpt>
      <trkpt lat="44.74431" lon="5.02813">
        <ele>309</ele>
        <time>2007-12-03T11:08:31Z</time>
      </trkpt>
      <trkpt lat="44.74446" lon="5.02821">
        <ele>308</ele>
        <time>2007-12-03T11:08:34Z</time>
      </trkpt>
      <trkpt lat="44.74455" lon="5.02826">
        <ele>308</ele>
        <time>2007-12-03T11:08:36Z</time>
      </trkpt>
      <trkpt lat="44.74475" lon="5.02841">
        <ele>308</ele>
        <time>2007-12-03T11:08:41Z</time>
      </trkpt>
      <trkpt lat="44.74492" lon="5.02859">
        <ele>309</ele>
        <time>2007-12-03T11:08:45Z</time>
      </trkpt>
      <trkpt lat="44.74507" lon="5.02873">
        <ele>309</ele>
        <time>2007-12-03T11:08:50Z</time>
      </trkpt>
      <trkpt lat="44.74515" lon="5.02887">
        <ele>310</ele>
        <time>2007-12-03T11:08:54Z</time>
      </trkpt>
      <trkpt lat="44.74545" lon="5.02906">
        <ele>310</ele>
        <time>2007-12-03T11:08:59Z</time>
      </trkpt>
      <trkpt lat="44.74561" lon="5.02923">
        <ele>312</ele>
        <time>2007-12-03T11:09:03Z</time>
      </trkpt>
      <trkpt lat="44.74594" lon="5.02932">
        <ele>310</ele>
        <time>2007-12-03T11:09:08Z</time>
      </trkpt>
      <trkpt lat="44.74619" lon="5.02935">
        <ele>308</ele>
        <time>2007-12-03T11:09:13Z</time>
      </trkpt>
      <trkpt lat="44.74673" lon="5.0296">
        <ele>307</ele>
        <time>2007-12-03T11:09:22Z</time>
      </trkpt>
      <trkpt lat="44.74705" lon="5.02968">
        <ele>305</ele>
        <time>2007-12-03T11:09:27Z</time>
      </trkpt>
      <trkpt lat="44.74714" lon="5.02976">
        <ele>304</ele>
        <time>2007-12-03T11:09:29Z</time>
      </trkpt>
      <trkpt lat="44.74731" lon="5.02998">
        <ele>303</ele>
        <time>2007-12-03T11:09:33Z</time>
      </trkpt>
      <trkpt lat="44.74748" lon="5.0305">
        <ele>306</ele>
        <time>2007-12-03T11:09:39Z</time>
      </trkpt>
      <trkpt lat="44.74773" lon="5.03101">
        <ele>304</ele>
        <time>2007-12-03T11:09:46Z</time>
      </trkpt>
      <trkpt lat="44.74777" lon="5.03096">
        <ele>302</ele>
        <time>2007-12-03T11:09:47Z</time>
      </trkpt>
      <trkpt lat="44.74791" lon="5.0308">
        <ele>300</ele>
        <time>2007-12-03T11:09:51Z</time>
      </trkpt>
      <trkpt lat="44.74809" lon="5.03063">
        <ele>300</ele>
        <time>2007-12-03T11:09:55Z</time>
      </trkpt>
      <trkpt lat="44.7483" lon="5.03042">
        <ele>299</ele>
        <time>2007-12-03T11:09:59Z</time>
      </trkpt>
      <trkpt lat="44.74926" lon="5.03012">
        <ele>302</ele>
        <time>2007-12-03T11:10:13Z</time>
      </trkpt>
      <trkpt lat="44.75019" lon="5.03004">
        <ele>301</ele>
        <time>2007-12-03T11:10:28Z</time>
      </trkpt>
      <trkpt lat="44.75049" lon="5.03005">
        <ele>302</ele>
        <time>2007-12-03T11:10:33Z</time>
      </trkpt>
      <trkpt lat="44.75108" lon="5.0299">
        <ele>303</ele>
        <time>2007-12-03T11:10:43Z</time>
      </trkpt>
      <trkpt lat="44.75126" lon="5.0299">
        <ele>301</ele>
        <time>2007-12-03T11:10:46Z</time>
      </trkpt>
      <trkpt lat="44.75143" lon="5.02994">
        <ele>300</ele>
        <time>2007-12-03T11:10:49Z</time>
      </trkpt>
      <trkpt lat="44.75164" lon="5.03007">
        <ele>301</ele>
        <time>2007-12-03T11:10:53Z</time>
      </trkpt>
      <trkpt lat="44.75176" lon="5.03012">
        <ele>301</ele>
        <time>2007-12-03T11:10:55Z</time>
      </trkpt>
      <trkpt lat="44.75193" lon="5.03014">
        <ele>301</ele>
        <time>2007-12-03T11:10:58Z</time>
      </trkpt>
      <trkpt lat="44.75226" lon="5.03006">
        <ele>302</ele>
        <time>2007-12-03T11:11:04Z</time>
      </trkpt>
      <trkpt lat="44.75247" lon="5.03009">
        <ele>303</ele>
        <time>2007-12-03T11:11:08Z</time>
      </trkpt>
      <trkpt lat="44.75295" lon="5.03016">
        <ele>302</ele>
        <time>2007-12-03T11:11:16Z</time>
      </trkpt>
      <trkpt lat="44.75335" lon="5.03024">
        <ele>299</ele>
        <time>2007-12-03T11:11:22Z</time>
      </trkpt>
      <trkpt lat="44.75356" lon="5.0303">
        <ele>299</ele>
        <time>2007-12-03T11:11:25Z</time>
      </trkpt>
      <trkpt lat="44.7543" lon="5.0304">
        <ele>297</ele>
        <time>2007-12-03T11:11:37Z</time>
      </trkpt>
      <trkpt lat="44.75483" lon="5.0304">
        <ele>293</ele>
        <time>2007-12-03T11:11:44Z</time>
      </trkpt>
      <trkpt lat="44.755" lon="5.03039">
        <ele>291</ele>
        <time>2007-12-03T11:11:46Z</time>
      </trkpt>
      <trkpt lat="44.7554" lon="5.03038">
        <ele>288</ele>
        <time>2007-12-03T11:11:50Z</time>
      </trkpt>
      <trkpt lat="44.75559" lon="5.03037">
        <ele>287</ele>
        <time>2007-12-03T11:11:52Z</time>
      </trkpt>
      <trkpt lat="44.75622" lon="5.03037">
        <ele>283</ele>
        <time>2007-12-03T11:11:59Z</time>
      </trkpt>
      <trkpt lat="44.75652" lon="5.03038">
        <ele>281</ele>
        <time>2007-12-03T11:12:02Z</time>
      </trkpt>
      <trkpt lat="44.75684" lon="5.03038">
        <ele>278</ele>
        <time>2007-12-03T11:12:05Z</time>
      </trkpt>
      <trkpt lat="44.75742" lon="5.03057">
        <ele>276</ele>
        <time>2007-12-03T11:12:11Z</time>
      </trkpt>
      <trkpt lat="44.75829" lon="5.03091">
        <ele>273</ele>
        <time>2007-12-03T11:12:23Z</time>
      </trkpt>
      <trkpt lat="44.75904" lon="5.03119">
        <ele>274</ele>
        <time>2007-12-03T11:12:35Z</time>
      </trkpt>
      <trkpt lat="44.75955" lon="5.03139">
        <ele>274</ele>
        <time>2007-12-03T11:12:43Z</time>
      </trkpt>
      <trkpt lat="44.76012" lon="5.03137">
        <ele>270</ele>
        <time>2007-12-03T11:12:51Z</time>
      </trkpt>
      <trkpt lat="44.76026" lon="5.03137">
        <ele>270</ele>
        <time>2007-12-03T11:12:53Z</time>
      </trkpt>
      <trkpt lat="44.76122" lon="5.03153">
        <ele>270</ele>
        <time>2007-12-03T11:13:07Z</time>
      </trkpt>
      <trkpt lat="44.76172" lon="5.03166">
        <ele>271</ele>
        <time>2007-12-03T11:13:16Z</time>
      </trkpt>
      <trkpt lat="44.76211" lon="5.0318">
        <ele>277</ele>
        <time>2007-12-03T11:13:24Z</time>
      </trkpt>
      <trkpt lat="44.76238" lon="5.03192">
        <ele>282</ele>
        <time>2007-12-03T11:13:30Z</time>
      </trkpt>
      <trkpt lat="44.76259" lon="5.03205">
        <ele>284</ele>
        <time>2007-12-03T11:13:35Z</time>
      </trkpt>
      <trkpt lat="44.76287" lon="5.03225">
        <ele>279</ele>
        <time>2007-12-03T11:13:41Z</time>
      </trkpt>
      <trkpt lat="44.76301" lon="5.03237">
        <ele>276</ele>
        <time>2007-12-03T11:13:44Z</time>
      </trkpt>
      <trkpt lat="44.76365" lon="5.03296">
        <ele>273</ele>
        <time>2007-12-03T11:13:57Z</time>
      </trkpt>
      <trkpt lat="44.76376" lon="5.03303">
        <ele>273</ele>
        <time>2007-12-03T11:13:59Z</time>
      </trkpt>
      <trkpt lat="44.76392" lon="5.0331">
        <ele>273</ele>
        <time>2007-12-03T11:14:02Z</time>
      </trkpt>
      <trkpt lat="44.76406" lon="5.03315">
        <ele>274</ele>
        <time>2007-12-03T11:14:05Z</time>
      </trkpt>
      <trkpt lat="44.76411" lon="5.03318">
        <ele>274</ele>
        <time>2007-12-03T11:14:06Z</time>
      </trkpt>
      <trkpt lat="44.7642" lon="5.0333">
        <ele>275</ele>
        <time>2007-12-03T11:14:09Z</time>
      </trkpt>
      <trkpt lat="44.76424" lon="5.03335">
        <ele>276</ele>
        <time>2007-12-03T11:14:11Z</time>
      </trkpt>
      <trkpt lat="44.76473" lon="5.03357">
        <ele>274</ele>
        <time>2007-12-03T11:14:22Z</time>
      </trkpt>
      <trkpt lat="44.76496" lon="5.0337">
        <ele>274</ele>
        <time>2007-12-03T11:14:26Z</time>
      </trkpt>
      <trkpt lat="44.76515" lon="5.03375">
        <ele>272</ele>
        <time>2007-12-03T11:14:29Z</time>
      </trkpt>
      <trkpt lat="44.76529" lon="5.03379">
        <ele>271</ele>
        <time>2007-12-03T11:14:31Z</time>
      </trkpt>
      <trkpt lat="44.76568" lon="5.0339">
        <ele>270</ele>
        <time>2007-12-03T11:14:36Z</time>
      </trkpt>
      <trkpt lat="44.76583" lon="5.03395">
        <ele>270</ele>
        <time>2007-12-03T11:14:38Z</time>
      </trkpt>
      <trkpt lat="44.76599" lon="5.034">
        <ele>268</ele>
        <time>2007-12-03T11:14:40Z</time>
      </trkpt>
      <trkpt lat="44.76631" lon="5.03405">
        <ele>266</ele>
        <time>2007-12-03T11:14:44Z</time>
      </trkpt>
      <trkpt lat="44.76656" lon="5.03406">
        <ele>264</ele>
        <time>2007-12-03T11:14:47Z</time>
      </trkpt>
      <trkpt lat="44.7668" lon="5.03389">
        <ele>262</ele>
        <time>2007-12-03T11:14:50Z</time>
      </trkpt>
      <trkpt lat="44.7672" lon="5.03345">
        <ele>267</ele>
        <time>2007-12-03T11:14:59Z</time>
      </trkpt>
      <trkpt lat="44.76741" lon="5.03326">
        <ele>272</ele>
        <time>2007-12-03T11:15:09Z</time>
      </trkpt>
      <trkpt lat="44.76748" lon="5.03323">
        <ele>273</ele>
        <time>2007-12-03T11:15:12Z</time>
      </trkpt>
      <trkpt lat="44.76756" lon="5.03317">
        <ele>274</ele>
        <time>2007-12-03T11:15:16Z</time>
      </trkpt>
      <trkpt lat="44.76759" lon="5.03316">
        <ele>275</ele>
        <time>2007-12-03T11:15:18Z</time>
      </trkpt>
      <trkpt lat="44.7677" lon="5.03309">
        <ele>275</ele>
        <time>2007-12-03T11:15:23Z</time>
      </trkpt>
      <trkpt lat="44.76773" lon="5.03312">
        <ele>276</ele>
        <time>2007-12-03T11:15:27Z</time>
      </trkpt>
      <trkpt lat="44.76771" lon="5.03326">
        <ele>277</ele>
        <time>2007-12-03T11:15:32Z</time>
      </trkpt>
      <trkpt lat="44.76766" lon="5.03346">
        <ele>277</ele>
        <time>2007-12-03T11:15:39Z</time>
      </trkpt>
      <trkpt lat="44.76767" lon="5.0335">
        <ele>277</ele>
        <time>2007-12-03T11:15:41Z</time>
      </trkpt>
      <trkpt lat="44.76768" lon="5.03372">
        <ele>277</ele>
        <time>2007-12-03T11:18:20Z</time>
      </trkpt>
      <trkpt lat="44.76768" lon="5.03382">
        <ele>278</ele>
        <time>2007-12-03T11:18:33Z</time>
      </trkpt>
      <trkpt lat="44.76769" lon="5.03382">
        <ele>278</ele>
        <time>2007-12-03T11:19:03Z</time>
      </trkpt>
      <trkpt lat="44.76767" lon="5.03381">
        <ele>277</ele>
        <time>2007-12-03T11:19:58Z</time>
      </trkpt>
      <trkpt lat="44.76767" lon="5.03381">
        <ele>277</ele>
        <time>2007-12-03T11:20:29Z</time>
      </trkpt>
      <trkpt lat="44.76776" lon="5.03412">
        <ele>277</ele>
        <time>2007-12-03T11:20:42Z</time>
      </trkpt>
      <trkpt lat="44.768" lon="5.03475">
        <ele>277</ele>
        <time>2007-12-03T11:20:53Z</time>
      </trkpt>
      <trkpt lat="44.76824" lon="5.03512">
        <ele>275</ele>
        <time>2007-12-03T11:21:01Z</time>
      </trkpt>
      <trkpt lat="44.76861" lon="5.0353">
        <ele>276</ele>
        <time>2007-12-03T11:21:13Z</time>
      </trkpt>
      <trkpt lat="44.76866" lon="5.03531">
        <ele>277</ele>
        <time>2007-12-03T11:21:27Z</time>
      </trkpt>
      <trkpt lat="44.76884" lon="5.03543">
        <ele>277</ele>
        <time>2007-12-03T11:21:40Z</time>
      </trkpt>
      <trkpt lat="44.76903" lon="5.03561">
        <ele>277</ele>
        <time>2007-12-03T11:21:50Z</time>
      </trkpt>
      <trkpt lat="44.76907" lon="5.03568">
        <ele>276</ele>
        <time>2007-12-03T11:22:04Z</time>
      </trkpt>
      <trkpt lat="44.76907" lon="5.03568">
        <ele>276</ele>
        <time>2007-12-03T11:22:08Z</time>
      </trkpt>
      <trkpt lat="44.76907" lon="5.03568">
        <ele>276</ele>
        <time>2007-12-03T11:22:09Z</time>
      </trkpt>
      <trkpt lat="44.76909" lon="5.03569">
        <ele>276</ele>
        <time>2007-12-03T11:23:32Z</time>
      </trkpt>
      <trkpt lat="44.76909" lon="5.03574">
        <ele>276</ele>
        <time>2007-12-03T11:23:35Z</time>
      </trkpt>
      <trkpt lat="44.76914" lon="5.03585">
        <ele>275</ele>
        <time>2007-12-03T11:23:39Z</time>
      </trkpt>
      <trkpt lat="44.7692" lon="5.03606">
        <ele>281</ele>
        <time>2007-12-03T11:23:46Z</time>
      </trkpt>
      <trkpt lat="44.7692" lon="5.03607">
        <ele>281</ele>
        <time>2007-12-03T11:23:47Z</time>
      </trkpt>
      <trkpt lat="44.76926" lon="5.03619">
        <ele>285</ele>
        <time>2007-12-03T11:23:54Z</time>
      </trkpt>
      <trkpt lat="44.76932" lon="5.03622">
        <ele>286</ele>
        <time>2007-12-03T11:23:58Z</time>
      </trkpt>
      <trkpt lat="44.76957" lon="5.03629">
        <ele>288</ele>
        <time>2007-12-03T11:24:11Z</time>
      </trkpt>
      <trkpt lat="44.76976" lon="5.03633">
        <ele>289</ele>
        <time>2007-12-03T11:24:20Z</time>
      </trkpt>
      <trkpt lat="44.77007" lon="5.03638">
        <ele>290</ele>
        <time>2007-12-03T11:24:34Z</time>
      </trkpt>
      <trkpt lat="44.77047" lon="5.03642">
        <ele>287</ele>
        <time>2007-12-03T11:24:49Z</time>
      </trkpt>
      <trkpt lat="44.77065" lon="5.0367">
        <ele>289</ele>
        <time>2007-12-03T11:25:03Z</time>
      </trkpt>
      <trkpt lat="44.77087" lon="5.03691">
        <ele>294</ele>
        <time>2007-12-03T11:25:15Z</time>
      </trkpt>
      <trkpt lat="44.771" lon="5.03708">
        <ele>297</ele>
        <time>2007-12-03T11:25:25Z</time>
      </trkpt>
      <trkpt lat="44.77105" lon="5.03711">
        <ele>296</ele>
        <time>2007-12-03T11:25:28Z</time>
      </trkpt>
      <trkpt lat="44.77111" lon="5.03716">
        <ele>296</ele>
        <time>2007-12-03T11:25:45Z</time>
      </trkpt>
      <trkpt lat="44.77107" lon="5.03717">
        <ele>297</ele>
        <time>2007-12-03T11:28:16Z</time>
      </trkpt>
      <trkpt lat="44.7711" lon="5.03724">
        <ele>298</ele>
        <time>2007-12-03T11:28:19Z</time>
      </trkpt>
      <trkpt lat="44.77116" lon="5.03736">
        <ele>301</ele>
        <time>2007-12-03T11:28:24Z</time>
      </trkpt>
      <trkpt lat="44.77117" lon="5.03748">
        <ele>303</ele>
        <time>2007-12-03T11:28:28Z</time>
      </trkpt>
      <trkpt lat="44.77119" lon="5.03755">
        <ele>305</ele>
        <time>2007-12-03T11:28:31Z</time>
      </trkpt>
      <trkpt lat="44.77122" lon="5.03786">
        <ele>312</ele>
        <time>2007-12-03T11:28:43Z</time>
      </trkpt>
      <trkpt lat="44.77129" lon="5.03809">
        <ele>315</ele>
        <time>2007-12-03T11:28:54Z</time>
      </trkpt>
      <trkpt lat="44.77134" lon="5.03814">
        <ele>315</ele>
        <time>2007-12-03T11:29:05Z</time>
      </trkpt>
      <trkpt lat="44.77135" lon="5.03817">
        <ele>315</ele>
        <time>2007-12-03T11:31:16Z</time>
      </trkpt>
      <trkpt lat="44.77137" lon="5.03824">
        <ele>316</ele>
        <time>2007-12-03T11:31:29Z</time>
      </trkpt>
      <trkpt lat="44.77134" lon="5.03839">
        <ele>319</ele>
        <time>2007-12-03T11:31:35Z</time>
      </trkpt>
      <trkpt lat="44.77134" lon="5.03871">
        <ele>324</ele>
        <time>2007-12-03T11:31:49Z</time>
      </trkpt>
      <trkpt lat="44.77136" lon="5.03889">
        <ele>326</ele>
        <time>2007-12-03T11:31:58Z</time>
      </trkpt>
      <trkpt lat="44.77136" lon="5.03891">
        <ele>326</ele>
        <time>2007-12-03T11:32:16Z</time>
      </trkpt>
      <trkpt lat="44.77133" lon="5.03895">
        <ele>328</ele>
        <time>2007-12-03T11:32:57Z</time>
      </trkpt>
      <trkpt lat="44.77134" lon="5.03905">
        <ele>329</ele>
        <time>2007-12-03T11:33:05Z</time>
      </trkpt>
      <trkpt lat="44.77138" lon="5.03908">
        <ele>328</ele>
        <time>2007-12-03T11:33:07Z</time>
      </trkpt>
      <trkpt lat="44.7714" lon="5.03912">
        <ele>328</ele>
        <time>2007-12-03T11:33:23Z</time>
      </trkpt>
      <trkpt lat="44.77148" lon="5.03926">
        <ele>328</ele>
        <time>2007-12-03T11:35:28Z</time>
      </trkpt>
      <trkpt lat="44.7715" lon="5.0394">
        <ele>330</ele>
        <time>2007-12-03T11:35:41Z</time>
      </trkpt>
      <trkpt lat="44.77149" lon="5.03939">
        <ele>330</ele>
        <time>2007-12-03T11:35:48Z</time>
      </trkpt>
      <trkpt lat="44.7715" lon="5.03953">
        <ele>332</ele>
        <time>2007-12-03T11:35:59Z</time>
      </trkpt>
      <trkpt lat="44.7715" lon="5.03959">
        <ele>333</ele>
        <time>2007-12-03T11:36:03Z</time>
      </trkpt>
      <trkpt lat="44.77149" lon="5.03967">
        <ele>335</ele>
        <time>2007-12-03T11:36:10Z</time>
      </trkpt>
      <trkpt lat="44.77146" lon="5.03973">
        <ele>337</ele>
        <time>2007-12-03T11:36:40Z</time>
      </trkpt>
      <trkpt lat="44.77142" lon="5.0399">
        <ele>341</ele>
        <time>2007-12-03T11:37:41Z</time>
      </trkpt>
      <trkpt lat="44.77142" lon="5.04011">
        <ele>344</ele>
        <time>2007-12-03T11:38:00Z</time>
      </trkpt>
      <trkpt lat="44.77141" lon="5.04016">
        <ele>345</ele>
        <time>2007-12-03T11:38:02Z</time>
      </trkpt>
      <trkpt lat="44.77141" lon="5.04019">
        <ele>346</ele>
        <time>2007-12-03T11:38:04Z</time>
      </trkpt>
      <trkpt lat="44.77142" lon="5.04024">
        <ele>346</ele>
        <time>2007-12-03T11:38:06Z</time>
      </trkpt>
      <trkpt lat="44.7714" lon="5.04032">
        <ele>348</ele>
        <time>2007-12-03T11:38:20Z</time>
      </trkpt>
      <trkpt lat="44.77138" lon="5.04035">
        <ele>349</ele>
        <time>2007-12-03T11:38:26Z</time>
      </trkpt>
      <trkpt lat="44.77138" lon="5.0405">
        <ele>352</ele>
        <time>2007-12-03T11:38:32Z</time>
      </trkpt>
      <trkpt lat="44.77137" lon="5.04063">
        <ele>354</ele>
        <time>2007-12-03T11:38:39Z</time>
      </trkpt>
      <trkpt lat="44.77137" lon="5.04072">
        <ele>355</ele>
        <time>2007-12-03T11:38:57Z</time>
      </trkpt>
      <trkpt lat="44.77142" lon="5.04088">
        <ele>356</ele>
        <time>2007-12-03T11:39:10Z</time>
      </trkpt>
      <trkpt lat="44.77142" lon="5.041">
        <ele>358</ele>
        <time>2007-12-03T11:39:15Z</time>
      </trkpt>
      <trkpt lat="44.77144" lon="5.04108">
        <ele>357</ele>
        <time>2007-12-03T11:39:18Z</time>
      </trkpt>
      <trkpt lat="44.77149" lon="5.04122">
        <ele>353</ele>
        <time>2007-12-03T11:39:24Z</time>
      </trkpt>
      <trkpt lat="44.77154" lon="5.04137">
        <ele>350</ele>
        <time>2007-12-03T11:39:29Z</time>
      </trkpt>
      <trkpt lat="44.77139" lon="5.04157">
        <ele>354</ele>
        <time>2007-12-03T11:39:36Z</time>
      </trkpt>
      <trkpt lat="44.77133" lon="5.04165">
        <ele>355</ele>
        <time>2007-12-03T11:39:38Z</time>
      </trkpt>
      <trkpt lat="44.77118" lon="5.04184">
        <ele>355</ele>
        <time>2007-12-03T11:39:42Z</time>
      </trkpt>
      <trkpt lat="44.77094" lon="5.04222">
        <ele>356</ele>
        <time>2007-12-03T11:39:52Z</time>
      </trkpt>
      <trkpt lat="44.7707" lon="5.04249">
        <ele>358</ele>
        <time>2007-12-03T11:40:06Z</time>
      </trkpt>
      <trkpt lat="44.77066" lon="5.04257">
        <ele>358</ele>
        <time>2007-12-03T11:40:10Z</time>
      </trkpt>
      <trkpt lat="44.77052" lon="5.04287">
        <ele>358</ele>
        <time>2007-12-03T11:40:23Z</time>
      </trkpt>
      <trkpt lat="44.77048" lon="5.04302">
        <ele>358</ele>
        <time>2007-12-03T11:40:29Z</time>
      </trkpt>
      <trkpt lat="44.77045" lon="5.04321">
        <ele>358</ele>
        <time>2007-12-03T11:40:37Z</time>
      </trkpt>
      <trkpt lat="44.77044" lon="5.04327">
        <ele>358</ele>
        <time>2007-12-03T11:40:39Z</time>
      </trkpt>
      <trkpt lat="44.77037" lon="5.04336">
        <ele>359</ele>
        <time>2007-12-03T11:40:45Z</time>
      </trkpt>
      <trkpt lat="44.77028" lon="5.04349">
        <ele>360</ele>
        <time>2007-12-03T11:40:51Z</time>
      </trkpt>
      <trkpt lat="44.77023" lon="5.04356">
        <ele>361</ele>
        <time>2007-12-03T11:40:54Z</time>
      </trkpt>
      <trkpt lat="44.77012" lon="5.04381">
        <ele>363</ele>
        <time>2007-12-03T11:41:04Z</time>
      </trkpt>
      <trkpt lat="44.77006" lon="5.0439">
        <ele>364</ele>
        <time>2007-12-03T11:41:15Z</time>
      </trkpt>
      <trkpt lat="44.77008" lon="5.04404">
        <ele>363</ele>
        <time>2007-12-03T11:41:29Z</time>
      </trkpt>
      <trkpt lat="44.77008" lon="5.04404">
        <ele>363</ele>
        <time>2007-12-03T11:41:30Z</time>
      </trkpt>
      <trkpt lat="44.77002" lon="5.04415">
        <ele>364</ele>
        <time>2007-12-03T11:41:40Z</time>
      </trkpt>
      <trkpt lat="44.77002" lon="5.04419">
        <ele>364</ele>
        <time>2007-12-03T11:43:28Z</time>
      </trkpt>
      <trkpt lat="44.77002" lon="5.04419">
        <ele>364</ele>
        <time>2007-12-03T11:43:45Z</time>
      </trkpt>
      <trkpt lat="44.77002" lon="5.04427">
        <ele>365</ele>
        <time>2007-12-03T11:43:49Z</time>
      </trkpt>
      <trkpt lat="44.77002" lon="5.0446">
        <ele>366</ele>
        <time>2007-12-03T11:44:00Z</time>
      </trkpt>
      <trkpt lat="44.77002" lon="5.0447">
        <ele>367</ele>
        <time>2007-12-03T11:44:04Z</time>
      </trkpt>
      <trkpt lat="44.77" lon="5.04486">
        <ele>369</ele>
        <time>2007-12-03T11:44:10Z</time>
      </trkpt>
      <trkpt lat="44.76991" lon="5.04522">
        <ele>374</ele>
        <time>2007-12-03T11:44:24Z</time>
      </trkpt>
      <trkpt lat="44.7699" lon="5.04542">
        <ele>377</ele>
        <time>2007-12-03T11:44:37Z</time>
      </trkpt>
      <trkpt lat="44.76992" lon="5.04541">
        <ele>377</ele>
        <time>2007-12-03T11:48:00Z</time>
      </trkpt>
      <trkpt lat="44.77013" lon="5.04534">
        <ele>374</ele>
        <time>2007-12-03T11:48:08Z</time>
      </trkpt>
      <trkpt lat="44.77038" lon="5.04528">
        <ele>370</ele>
        <time>2007-12-03T11:48:17Z</time>
      </trkpt>
      <trkpt lat="44.77049" lon="5.04524">
        <ele>368</ele>
        <time>2007-12-03T11:48:20Z</time>
      </trkpt>
      <trkpt lat="44.77056" lon="5.04522">
        <ele>366</ele>
        <time>2007-12-03T11:48:22Z</time>
      </trkpt>
      <trkpt lat="44.77079" lon="5.04522">
        <ele>362</ele>
        <time>2007-12-03T11:48:27Z</time>
      </trkpt>
      <trkpt lat="44.77097" lon="5.04529">
        <ele>360</ele>
        <time>2007-12-03T11:48:31Z</time>
      </trkpt>
      <trkpt lat="44.77114" lon="5.04539">
        <ele>358</ele>
        <time>2007-12-03T11:48:36Z</time>
      </trkpt>
      <trkpt lat="44.77135" lon="5.04553">
        <ele>356</ele>
        <time>2007-12-03T11:48:44Z</time>
      </trkpt>
      <trkpt lat="44.77142" lon="5.04559">
        <ele>356</ele>
        <time>2007-12-03T11:48:46Z</time>
      </trkpt>
      <trkpt lat="44.77163" lon="5.04575">
        <ele>355</ele>
        <time>2007-12-03T11:48:52Z</time>
      </trkpt>
      <trkpt lat="44.77177" lon="5.04579">
        <ele>352</ele>
        <time>2007-12-03T11:48:56Z</time>
      </trkpt>
      <trkpt lat="44.77198" lon="5.04579">
        <ele>350</ele>
        <time>2007-12-03T11:49:02Z</time>
      </trkpt>
      <trkpt lat="44.77206" lon="5.04584">
        <ele>350</ele>
        <time>2007-12-03T11:49:04Z</time>
      </trkpt>
      <trkpt lat="44.77217" lon="5.04587">
        <ele>350</ele>
        <time>2007-12-03T11:49:07Z</time>
      </trkpt>
      <trkpt lat="44.77221" lon="5.04583">
        <ele>349</ele>
        <time>2007-12-03T11:49:15Z</time>
      </trkpt>
      <trkpt lat="44.77222" lon="5.04584">
        <ele>349</ele>
        <time>2007-12-03T11:50:18Z</time>
      </trkpt>
      <trkpt lat="44.77209" lon="5.04553">
        <ele>345</ele>
        <time>2007-12-03T11:53:54Z</time>
      </trkpt>
      <trkpt lat="44.77203" lon="5.04508">
        <ele>343</ele>
        <time>2007-12-03T11:54:06Z</time>
      </trkpt>
      <trkpt lat="44.77201" lon="5.04475">
        <ele>343</ele>
        <time>2007-12-03T11:54:14Z</time>
      </trkpt>
      <trkpt lat="44.77199" lon="5.04469">
        <ele>342</ele>
        <time>2007-12-03T11:54:15Z</time>
      </trkpt>
      <trkpt lat="44.77188" lon="5.04429">
        <ele>340</ele>
        <time>2007-12-03T11:54:23Z</time>
      </trkpt>
      <trkpt lat="44.7719" lon="5.04367">
        <ele>336</ele>
        <time>2007-12-03T11:54:33Z</time>
      </trkpt>
      <trkpt lat="44.7719" lon="5.04357">
        <ele>335</ele>
        <time>2007-12-03T11:54:35Z</time>
      </trkpt>
      <trkpt lat="44.77204" lon="5.04331">
        <ele>334</ele>
        <time>2007-12-03T11:54:40Z</time>
      </trkpt>
      <trkpt lat="44.77244" lon="5.04324">
        <ele>341</ele>
        <time>2007-12-03T11:54:50Z</time>
      </trkpt>
      <trkpt lat="44.77249" lon="5.04329">
        <ele>342</ele>
        <time>2007-12-03T11:54:56Z</time>
      </trkpt>
      <trkpt lat="44.77238" lon="5.04336">
        <ele>342</ele>
        <time>2007-12-03T11:55:07Z</time>
      </trkpt>
      <trkpt lat="44.77234" lon="5.0436">
        <ele>347</ele>
        <time>2007-12-03T11:57:02Z</time>
      </trkpt>
      <trkpt lat="44.77236" lon="5.04373">
        <ele>348</ele>
        <time>2007-12-03T11:57:06Z</time>
      </trkpt>
      <trkpt lat="44.77236" lon="5.04379">
        <ele>348</ele>
        <time>2007-12-03T11:57:08Z</time>
      </trkpt>
      <trkpt lat="44.77255" lon="5.04409">
        <ele>353</ele>
        <time>2007-12-03T11:57:20Z</time>
      </trkpt>
      <trkpt lat="44.77271" lon="5.04434">
        <ele>357</ele>
        <time>2007-12-03T11:57:29Z</time>
      </trkpt>
      <trkpt lat="44.77282" lon="5.04451">
        <ele>359</ele>
        <time>2007-12-03T11:57:37Z</time>
      </trkpt>
      <trkpt lat="44.77294" lon="5.04467">
        <ele>362</ele>
        <time>2007-12-03T11:57:44Z</time>
      </trkpt>
      <trkpt lat="44.77307" lon="5.04483">
        <ele>364</ele>
        <time>2007-12-03T11:57:58Z</time>
      </trkpt>
      <trkpt lat="44.77306" lon="5.04481">
        <ele>364</ele>
        <time>2007-12-03T12:01:26Z</time>
      </trkpt>
      <trkpt lat="44.7732" lon="5.04492">
        <ele>367</ele>
        <time>2007-12-03T12:01:31Z</time>
      </trkpt>
      <trkpt lat="44.77321" lon="5.04494">
        <ele>367</ele>
        <time>2007-12-03T12:01:32Z</time>
      </trkpt>
      <trkpt lat="44.77332" lon="5.04524">
        <ele>369</ele>
        <time>2007-12-03T12:01:41Z</time>
      </trkpt>
      <trkpt lat="44.77333" lon="5.04531">
        <ele>370</ele>
        <time>2007-12-03T12:01:43Z</time>
      </trkpt>
      <trkpt lat="44.77341" lon="5.04559">
        <ele>373</ele>
        <time>2007-12-03T12:01:52Z</time>
      </trkpt>
      <trkpt lat="44.77348" lon="5.04574">
        <ele>376</ele>
        <time>2007-12-03T12:01:57Z</time>
      </trkpt>
      <trkpt lat="44.77358" lon="5.04598">
        <ele>383</ele>
        <time>2007-12-03T12:02:07Z</time>
      </trkpt>
      <trkpt lat="44.77353" lon="5.04621">
        <ele>385</ele>
        <time>2007-12-03T12:02:17Z</time>
      </trkpt>
      <trkpt lat="44.77352" lon="5.04624">
        <ele>386</ele>
        <time>2007-12-03T12:02:39Z</time>
      </trkpt>
      <trkpt lat="44.7735" lon="5.04618">
        <ele>383</ele>
        <time>2007-12-03T12:03:30Z</time>
      </trkpt>
      <trkpt lat="44.77346" lon="5.04622">
        <ele>383</ele>
        <time>2007-12-03T12:05:34Z</time>
      </trkpt>
      <trkpt lat="44.77334" lon="5.04636">
        <ele>380</ele>
        <time>2007-12-03T12:05:40Z</time>
      </trkpt>
      <trkpt lat="44.77325" lon="5.04652">
        <ele>379</ele>
        <time>2007-12-03T12:05:44Z</time>
      </trkpt>
      <trkpt lat="44.77311" lon="5.04708">
        <ele>382</ele>
        <time>2007-12-03T12:05:59Z</time>
      </trkpt>
      <trkpt lat="44.77311" lon="5.04741">
        <ele>387</ele>
        <time>2007-12-03T12:06:10Z</time>
      </trkpt>
      <trkpt lat="44.77309" lon="5.0475">
        <ele>387</ele>
        <time>2007-12-03T12:06:24Z</time>
      </trkpt>
      <trkpt lat="44.77306" lon="5.04762">
        <ele>386</ele>
        <time>2007-12-03T12:08:50Z</time>
      </trkpt>
      <trkpt lat="44.77306" lon="5.04777">
        <ele>387</ele>
        <time>2007-12-03T12:08:54Z</time>
      </trkpt>
      <trkpt lat="44.77308" lon="5.04821">
        <ele>388</ele>
        <time>2007-12-03T12:09:08Z</time>
      </trkpt>
      <trkpt lat="44.77309" lon="5.04824">
        <ele>388</ele>
        <time>2007-12-03T12:09:09Z</time>
      </trkpt>
      <trkpt lat="44.77316" lon="5.04848">
        <ele>390</ele>
        <time>2007-12-03T12:09:20Z</time>
      </trkpt>
      <trkpt lat="44.77318" lon="5.04849">
        <ele>390</ele>
        <time>2007-12-03T12:09:23Z</time>
      </trkpt>
      <trkpt lat="44.77319" lon="5.04849">
        <ele>391</ele>
        <time>2007-12-03T12:09:24Z</time>
      </trkpt>
      <trkpt lat="44.77319" lon="5.04858">
        <ele>390</ele>
        <time>2007-12-03T12:11:21Z</time>
      </trkpt>
      <trkpt lat="44.7732" lon="5.04859">
        <ele>391</ele>
        <time>2007-12-03T12:11:50Z</time>
      </trkpt>
      <trkpt lat="44.77331" lon="5.04869">
        <ele>396</ele>
        <time>2007-12-03T12:11:57Z</time>
      </trkpt>
      <trkpt lat="44.77346" lon="5.04893">
        <ele>399</ele>
        <time>2007-12-03T12:12:09Z</time>
      </trkpt>
      <trkpt lat="44.77355" lon="5.04901">
        <ele>401</ele>
        <time>2007-12-03T12:12:19Z</time>
      </trkpt>
      <trkpt lat="44.77356" lon="5.04904">
        <ele>401</ele>
        <time>2007-12-03T12:12:24Z</time>
      </trkpt>
      <trkpt lat="44.77365" lon="5.04919">
        <ele>401</ele>
        <time>2007-12-03T12:12:30Z</time>
      </trkpt>
      <trkpt lat="44.77392" lon="5.04944">
        <ele>407</ele>
        <time>2007-12-03T12:12:44Z</time>
      </trkpt>
      <trkpt lat="44.77414" lon="5.0496">
        <ele>411</ele>
        <time>2007-12-03T12:12:56Z</time>
      </trkpt>
      <trkpt lat="44.77439" lon="5.04978">
        <ele>416</ele>
        <time>2007-12-03T12:13:08Z</time>
      </trkpt>
      <trkpt lat="44.7746" lon="5.04999">
        <ele>418</ele>
        <time>2007-12-03T12:13:19Z</time>
      </trkpt>
      <trkpt lat="44.77479" lon="5.05025">
        <ele>418</ele>
        <time>2007-12-03T12:13:28Z</time>
      </trkpt>
      <trkpt lat="44.77505" lon="5.05064">
        <ele>415</ele>
        <time>2007-12-03T12:13:41Z</time>
      </trkpt>
      <trkpt lat="44.77532" lon="5.05105">
        <ele>414</ele>
        <time>2007-12-03T12:13:54Z</time>
      </trkpt>
      <trkpt lat="44.77553" lon="5.0514">
        <ele>412</ele>
        <time>2007-12-03T12:14:06Z</time>
      </trkpt>
      <trkpt lat="44.77563" lon="5.05147">
        <ele>415</ele>
        <time>2007-12-03T12:14:11Z</time>
      </trkpt>
      <trkpt lat="44.77566" lon="5.05154">
        <ele>414</ele>
        <time>2007-12-03T12:14:24Z</time>
      </trkpt>
      <trkpt lat="44.77566" lon="5.05154">
        <ele>415</ele>
        <time>2007-12-03T12:14:26Z</time>
      </trkpt>
      <trkpt lat="44.77567" lon="5.05155">
        <ele>415</ele>
        <time>2007-12-03T12:14:27Z</time>
      </trkpt>
      <trkpt lat="44.77567" lon="5.05154">
        <ele>415</ele>
        <time>2007-12-03T12:14:28Z</time>
      </trkpt>
      <trkpt lat="44.77563" lon="5.05153">
        <ele>414</ele>
        <time>2007-12-03T12:16:15Z</time>
      </trkpt>
      <trkpt lat="44.77571" lon="5.05162">
        <ele>415</ele>
        <time>2007-12-03T12:16:19Z</time>
      </trkpt>
      <trkpt lat="44.77596" lon="5.05191">
        <ele>417</ele>
        <time>2007-12-03T12:16:31Z</time>
      </trkpt>
      <trkpt lat="44.77617" lon="5.05222">
        <ele>419</ele>
        <time>2007-12-03T12:16:43Z</time>
      </trkpt>
      <trkpt lat="44.77619" lon="5.05225">
        <ele>419</ele>
        <time>2007-12-03T12:16:45Z</time>
      </trkpt>
      <trkpt lat="44.77628" lon="5.05232">
        <ele>421</ele>
        <time>2007-12-03T12:16:51Z</time>
      </trkpt>
      <trkpt lat="44.77633" lon="5.05236">
        <ele>422</ele>
        <time>2007-12-03T12:16:54Z</time>
      </trkpt>
      <trkpt lat="44.77637" lon="5.05236">
        <ele>424</ele>
        <time>2007-12-03T12:16:58Z</time>
      </trkpt>
      <trkpt lat="44.77641" lon="5.05235">
        <ele>425</ele>
        <time>2007-12-03T12:17:02Z</time>
      </trkpt>
      <trkpt lat="44.77652" lon="5.05246">
        <ele>427</ele>
        <time>2007-12-03T12:17:20Z</time>
      </trkpt>
      <trkpt lat="44.77656" lon="5.05243">
        <ele>429</ele>
        <time>2007-12-03T12:18:00Z</time>
      </trkpt>
      <trkpt lat="44.77665" lon="5.05254">
        <ele>431</ele>
        <time>2007-12-03T12:18:58Z</time>
      </trkpt>
      <trkpt lat="44.77666" lon="5.05256">
        <ele>431</ele>
        <time>2007-12-03T12:18:59Z</time>
      </trkpt>
      <trkpt lat="44.77672" lon="5.05259">
        <ele>434</ele>
        <time>2007-12-03T12:19:20Z</time>
      </trkpt>
      <trkpt lat="44.77677" lon="5.05264">
        <ele>435</ele>
        <time>2007-12-03T12:19:25Z</time>
      </trkpt>
      <trkpt lat="44.77686" lon="5.05274">
        <ele>439</ele>
        <time>2007-12-03T12:19:35Z</time>
      </trkpt>
      <trkpt lat="44.77687" lon="5.05277">
        <ele>439</ele>
        <time>2007-12-03T12:19:36Z</time>
      </trkpt>
      <trkpt lat="44.77697" lon="5.05305">
        <ele>443</ele>
        <time>2007-12-03T12:19:47Z</time>
      </trkpt>
      <trkpt lat="44.77704" lon="5.05318">
        <ele>445</ele>
        <time>2007-12-03T12:19:52Z</time>
      </trkpt>
      <trkpt lat="44.77706" lon="5.05321">
        <ele>446</ele>
        <time>2007-12-03T12:19:54Z</time>
      </trkpt>
      <trkpt lat="44.77707" lon="5.05324">
        <ele>446</ele>
        <time>2007-12-03T12:19:56Z</time>
      </trkpt>
      <trkpt lat="44.77715" lon="5.05336">
        <ele>448</ele>
        <time>2007-12-03T12:20:06Z</time>
      </trkpt>
      <trkpt lat="44.77715" lon="5.0534">
        <ele>447</ele>
        <time>2007-12-03T12:20:08Z</time>
      </trkpt>
      <trkpt lat="44.77716" lon="5.05344">
        <ele>447</ele>
        <time>2007-12-03T12:20:10Z</time>
      </trkpt>
      <trkpt lat="44.77719" lon="5.05355">
        <ele>445</ele>
        <time>2007-12-03T12:20:19Z</time>
      </trkpt>
      <trkpt lat="44.7772" lon="5.05367">
        <ele>443</ele>
        <time>2007-12-03T12:20:23Z</time>
      </trkpt>
      <trkpt lat="44.77732" lon="5.05378">
        <ele>446</ele>
        <time>2007-12-03T12:20:36Z</time>
      </trkpt>
      <trkpt lat="44.77734" lon="5.05379">
        <ele>446</ele>
        <time>2007-12-03T12:20:58Z</time>
      </trkpt>
      <trkpt lat="44.77734" lon="5.05379">
        <ele>446</ele>
        <time>2007-12-03T12:21:00Z</time>
      </trkpt>
      <trkpt lat="44.77736" lon="5.05381">
        <ele>447</ele>
        <time>2007-12-03T12:22:26Z</time>
      </trkpt>
      <trkpt lat="44.77755" lon="5.05383">
        <ele>453</ele>
        <time>2007-12-03T12:22:35Z</time>
      </trkpt>
      <trkpt lat="44.7778" lon="5.0538">
        <ele>460</ele>
        <time>2007-12-03T12:22:47Z</time>
      </trkpt>
      <trkpt lat="44.77807" lon="5.05372">
        <ele>468</ele>
        <time>2007-12-03T12:22:57Z</time>
      </trkpt>
      <trkpt lat="44.77828" lon="5.05371">
        <ele>472</ele>
        <time>2007-12-03T12:23:05Z</time>
      </trkpt>
      <trkpt lat="44.77841" lon="5.05374">
        <ele>474</ele>
        <time>2007-12-03T12:23:11Z</time>
      </trkpt>
      <trkpt lat="44.77859" lon="5.05368">
        <ele>478</ele>
        <time>2007-12-03T12:23:20Z</time>
      </trkpt>
      <trkpt lat="44.77875" lon="5.05366">
        <ele>480</ele>
        <time>2007-12-03T12:23:29Z</time>
      </trkpt>
      <trkpt lat="44.77877" lon="5.05366">
        <ele>480</ele>
        <time>2007-12-03T12:23:30Z</time>
      </trkpt>
      <trkpt lat="44.77892" lon="5.05364">
        <ele>484</ele>
        <time>2007-12-03T12:23:39Z</time>
      </trkpt>
      <trkpt lat="44.77894" lon="5.05364">
        <ele>484</ele>
        <time>2007-12-03T12:23:40Z</time>
      </trkpt>
      <trkpt lat="44.77904" lon="5.05364">
        <ele>486</ele>
        <time>2007-12-03T12:23:46Z</time>
      </trkpt>
      <trkpt lat="44.77916" lon="5.0537">
        <ele>489</ele>
        <time>2007-12-03T12:23:53Z</time>
      </trkpt>
      <trkpt lat="44.77923" lon="5.05376">
        <ele>491</ele>
        <time>2007-12-03T12:23:58Z</time>
      </trkpt>
      <trkpt lat="44.77929" lon="5.05379">
        <ele>492</ele>
        <time>2007-12-03T12:24:01Z</time>
      </trkpt>
      <trkpt lat="44.77941" lon="5.05379">
        <ele>494</ele>
        <time>2007-12-03T12:24:09Z</time>
      </trkpt>
      <trkpt lat="44.7796" lon="5.05375">
        <ele>497</ele>
        <time>2007-12-03T12:24:22Z</time>
      </trkpt>
      <trkpt lat="44.77966" lon="5.05374">
        <ele>498</ele>
        <time>2007-12-03T12:24:25Z</time>
      </trkpt>
      <trkpt lat="44.77981" lon="5.05366">
        <ele>499</ele>
        <time>2007-12-03T12:24:35Z</time>
      </trkpt>
      <trkpt lat="44.77984" lon="5.05367">
        <ele>499</ele>
        <time>2007-12-03T12:24:38Z</time>
      </trkpt>
      <trkpt lat="44.77993" lon="5.05366">
        <ele>499</ele>
        <time>2007-12-03T12:24:44Z</time>
      </trkpt>
      <trkpt lat="44.78004" lon="5.05356">
        <ele>499</ele>
        <time>2007-12-03T12:24:54Z</time>
      </trkpt>
      <trkpt lat="44.78015" lon="5.05358">
        <ele>500</ele>
        <time>2007-12-03T12:25:03Z</time>
      </trkpt>
      <trkpt lat="44.78012" lon="5.05372">
        <ele>500</ele>
        <time>2007-12-03T12:25:13Z</time>
      </trkpt>
      <trkpt lat="44.78011" lon="5.05373">
        <ele>500</ele>
        <time>2007-12-03T12:30:46Z</time>
      </trkpt>
      <trkpt lat="44.7801" lon="5.05385">
        <ele>499</ele>
        <time>2007-12-03T12:30:51Z</time>
      </trkpt>
      <trkpt lat="44.78006" lon="5.05396">
        <ele>499</ele>
        <time>2007-12-03T12:30:56Z</time>
      </trkpt>
      <trkpt lat="44.77998" lon="5.0541">
        <ele>499</ele>
        <time>2007-12-03T12:31:16Z</time>
      </trkpt>
      <trkpt lat="44.77997" lon="5.0541">
        <ele>499</ele>
        <time>2007-12-03T12:31:22Z</time>
      </trkpt>
      <trkpt lat="44.77984" lon="5.05426">
        <ele>502</ele>
        <time>2007-12-03T12:31:53Z</time>
      </trkpt>
      <trkpt lat="44.77972" lon="5.05437">
        <ele>503</ele>
        <time>2007-12-03T12:34:27Z</time>
      </trkpt>
      <trkpt lat="44.77956" lon="5.05458">
        <ele>505</ele>
        <time>2007-12-03T12:34:39Z</time>
      </trkpt>
      <trkpt lat="44.77939" lon="5.05477">
        <ele>506</ele>
        <time>2007-12-03T12:34:52Z</time>
      </trkpt>
      <trkpt lat="44.77933" lon="5.05484">
        <ele>507</ele>
        <time>2007-12-03T12:34:56Z</time>
      </trkpt>
      <trkpt lat="44.77929" lon="5.05491">
        <ele>508</ele>
        <time>2007-12-03T12:35:00Z</time>
      </trkpt>
      <trkpt lat="44.77926" lon="5.05495">
        <ele>509</ele>
        <time>2007-12-03T12:35:02Z</time>
      </trkpt>
      <trkpt lat="44.77905" lon="5.05514">
        <ele>508</ele>
        <time>2007-12-03T12:35:15Z</time>
      </trkpt>
      <trkpt lat="44.77895" lon="5.05527">
        <ele>508</ele>
        <time>2007-12-03T12:35:22Z</time>
      </trkpt>
      <trkpt lat="44.77882" lon="5.05541">
        <ele>507</ele>
        <time>2007-12-03T12:35:31Z</time>
      </trkpt>
      <trkpt lat="44.77868" lon="5.05574">
        <ele>509</ele>
        <time>2007-12-03T12:35:43Z</time>
      </trkpt>
      <trkpt lat="44.77868" lon="5.05576">
        <ele>510</ele>
        <time>2007-12-03T12:35:44Z</time>
      </trkpt>
      <trkpt lat="44.77865" lon="5.05595">
        <ele>513</ele>
        <time>2007-12-03T12:35:50Z</time>
      </trkpt>
      <trkpt lat="44.77865" lon="5.05601">
        <ele>515</ele>
        <time>2007-12-03T12:35:53Z</time>
      </trkpt>
      <trkpt lat="44.77854" lon="5.05624">
        <ele>517</ele>
        <time>2007-12-03T12:36:02Z</time>
      </trkpt>
      <trkpt lat="44.77834" lon="5.05632">
        <ele>515</ele>
        <time>2007-12-03T12:36:12Z</time>
      </trkpt>
      <trkpt lat="44.77827" lon="5.05638">
        <ele>515</ele>
        <time>2007-12-03T12:36:17Z</time>
      </trkpt>
      <trkpt lat="44.77822" lon="5.0564">
        <ele>514</ele>
        <time>2007-12-03T12:36:19Z</time>
      </trkpt>
      <trkpt lat="44.77818" lon="5.05641">
        <ele>513</ele>
        <time>2007-12-03T12:36:21Z</time>
      </trkpt>
      <trkpt lat="44.77818" lon="5.05642">
        <ele>513</ele>
        <time>2007-12-03T12:36:22Z</time>
      </trkpt>
      <trkpt lat="44.77818" lon="5.05642">
        <ele>513</ele>
        <time>2007-12-03T12:36:23Z</time>
      </trkpt>
      <trkpt lat="44.77817" lon="5.05644">
        <ele>514</ele>
        <time>2007-12-03T12:36:25Z</time>
      </trkpt>
      <trkpt lat="44.77793" lon="5.05674">
        <ele>515</ele>
        <time>2007-12-03T12:36:40Z</time>
      </trkpt>
      <trkpt lat="44.77791" lon="5.05682">
        <ele>516</ele>
        <time>2007-12-03T12:36:43Z</time>
      </trkpt>
      <trkpt lat="44.77776" lon="5.05719">
        <ele>519</ele>
        <time>2007-12-03T12:36:56Z</time>
      </trkpt>
      <trkpt lat="44.77772" lon="5.0575">
        <ele>522</ele>
        <time>2007-12-03T12:37:08Z</time>
      </trkpt>
      <trkpt lat="44.77768" lon="5.05761">
        <ele>521</ele>
        <time>2007-12-03T12:37:22Z</time>
      </trkpt>
      <trkpt lat="44.77766" lon="5.05766">
        <ele>521</ele>
        <time>2007-12-03T12:37:37Z</time>
      </trkpt>
      <trkpt lat="44.77761" lon="5.05784">
        <ele>521</ele>
        <time>2007-12-03T12:40:17Z</time>
      </trkpt>
      <trkpt lat="44.77757" lon="5.05803">
        <ele>521</ele>
        <time>2007-12-03T12:40:25Z</time>
      </trkpt>
      <trkpt lat="44.77759" lon="5.05812">
        <ele>523</ele>
        <time>2007-12-03T12:40:28Z</time>
      </trkpt>
      <trkpt lat="44.77759" lon="5.05814">
        <ele>523</ele>
        <time>2007-12-03T12:40:29Z</time>
      </trkpt>
      <trkpt lat="44.77755" lon="5.05838">
        <ele>524</ele>
        <time>2007-12-03T12:40:46Z</time>
      </trkpt>
      <trkpt lat="44.77755" lon="5.05843">
        <ele>524</ele>
        <time>2007-12-03T12:40:49Z</time>
      </trkpt>
      <trkpt lat="44.77769" lon="5.05882">
        <ele>528</ele>
        <time>2007-12-03T12:41:01Z</time>
      </trkpt>
      <trkpt lat="44.77777" lon="5.05907">
        <ele>531</ele>
        <time>2007-12-03T12:41:08Z</time>
      </trkpt>
      <trkpt lat="44.77784" lon="5.05918">
        <ele>534</ele>
        <time>2007-12-03T12:41:13Z</time>
      </trkpt>
      <trkpt lat="44.77796" lon="5.05934">
        <ele>538</ele>
        <time>2007-12-03T12:41:20Z</time>
      </trkpt>
      <trkpt lat="44.77794" lon="5.05945">
        <ele>537</ele>
        <time>2007-12-03T12:41:24Z</time>
      </trkpt>
      <trkpt lat="44.77781" lon="5.05954">
        <ele>533</ele>
        <time>2007-12-03T12:41:33Z</time>
      </trkpt>
      <trkpt lat="44.77779" lon="5.05958">
        <ele>532</ele>
        <time>2007-12-03T12:41:35Z</time>
      </trkpt>
      <trkpt lat="44.77776" lon="5.05967">
        <ele>532</ele>
        <time>2007-12-03T12:41:39Z</time>
      </trkpt>
      <trkpt lat="44.77773" lon="5.05973">
        <ele>531</ele>
        <time>2007-12-03T12:41:44Z</time>
      </trkpt>
      <trkpt lat="44.77774" lon="5.05982">
        <ele>532</ele>
        <time>2007-12-03T12:41:51Z</time>
      </trkpt>
      <trkpt lat="44.77783" lon="5.06013">
        <ele>536</ele>
        <time>2007-12-03T12:42:01Z</time>
      </trkpt>
      <trkpt lat="44.77772" lon="5.06062">
        <ele>535</ele>
        <time>2007-12-03T12:42:12Z</time>
      </trkpt>
      <trkpt lat="44.77773" lon="5.06076">
        <ele>535</ele>
        <time>2007-12-03T12:42:17Z</time>
      </trkpt>
      <trkpt lat="44.77775" lon="5.06089">
        <ele>536</ele>
        <time>2007-12-03T12:42:21Z</time>
      </trkpt>
      <trkpt lat="44.77773" lon="5.06097">
        <ele>536</ele>
        <time>2007-12-03T12:42:24Z</time>
      </trkpt>
      <trkpt lat="44.77778" lon="5.06127">
        <ele>538</ele>
        <time>2007-12-03T12:42:31Z</time>
      </trkpt>
      <trkpt lat="44.77794" lon="5.06167">
        <ele>544</ele>
        <time>2007-12-03T12:42:43Z</time>
      </trkpt>
      <trkpt lat="44.77799" lon="5.06174">
        <ele>546</ele>
        <time>2007-12-03T12:42:46Z</time>
      </trkpt>
      <trkpt lat="44.77798" lon="5.06189">
        <ele>546</ele>
        <time>2007-12-03T12:42:51Z</time>
      </trkpt>
      <trkpt lat="44.778" lon="5.06201">
        <ele>547</ele>
        <time>2007-12-03T12:42:56Z</time>
      </trkpt>
      <trkpt lat="44.77783" lon="5.06209">
        <ele>544</ele>
        <time>2007-12-03T12:43:05Z</time>
      </trkpt>
      <trkpt lat="44.77769" lon="5.0622">
        <ele>543</ele>
        <time>2007-12-03T12:43:15Z</time>
      </trkpt>
      <trkpt lat="44.7776" lon="5.06228">
        <ele>545</ele>
        <time>2007-12-03T12:43:21Z</time>
      </trkpt>
      <trkpt lat="44.77738" lon="5.06234">
        <ele>548</ele>
        <time>2007-12-03T12:43:33Z</time>
      </trkpt>
      <trkpt lat="44.77734" lon="5.06233">
        <ele>548</ele>
        <time>2007-12-03T12:43:35Z</time>
      </trkpt>
      <trkpt lat="44.77731" lon="5.06231">
        <ele>548</ele>
        <time>2007-12-03T12:43:37Z</time>
      </trkpt>
      <trkpt lat="44.77719" lon="5.06222">
        <ele>546</ele>
        <time>2007-12-03T12:43:45Z</time>
      </trkpt>
      <trkpt lat="44.77707" lon="5.06215">
        <ele>545</ele>
        <time>2007-12-03T12:43:50Z</time>
      </trkpt>
      <trkpt lat="44.77701" lon="5.06212">
        <ele>544</ele>
        <time>2007-12-03T12:44:08Z</time>
      </trkpt>
      <trkpt lat="44.77702" lon="5.06211">
        <ele>543</ele>
        <time>2007-12-03T12:44:52Z</time>
      </trkpt>
      <trkpt lat="44.77699" lon="5.06214">
        <ele>544</ele>
        <time>2007-12-03T12:44:54Z</time>
      </trkpt>
      <trkpt lat="44.77684" lon="5.06237">
        <ele>550</ele>
        <time>2007-12-03T12:45:04Z</time>
      </trkpt>
      <trkpt lat="44.77679" lon="5.0625">
        <ele>554</ele>
        <time>2007-12-03T12:45:10Z</time>
      </trkpt>
      <trkpt lat="44.77677" lon="5.06259">
        <ele>556</ele>
        <time>2007-12-03T12:45:14Z</time>
      </trkpt>
      <trkpt lat="44.77665" lon="5.06277">
        <ele>560</ele>
        <time>2007-12-03T12:45:25Z</time>
      </trkpt>
      <trkpt lat="44.77664" lon="5.0628">
        <ele>560</ele>
        <time>2007-12-03T12:45:27Z</time>
      </trkpt>
      <trkpt lat="44.77663" lon="5.06285">
        <ele>562</ele>
        <time>2007-12-03T12:45:30Z</time>
      </trkpt>
      <trkpt lat="44.77657" lon="5.06293">
        <ele>564</ele>
        <time>2007-12-03T12:45:36Z</time>
      </trkpt>
      <trkpt lat="44.77646" lon="5.06307">
        <ele>567</ele>
        <time>2007-12-03T12:45:46Z</time>
      </trkpt>
      <trkpt lat="44.77645" lon="5.06309">
        <ele>567</ele>
        <time>2007-12-03T12:45:47Z</time>
      </trkpt>
      <trkpt lat="44.77631" lon="5.06318">
        <ele>569</ele>
        <time>2007-12-03T12:45:57Z</time>
      </trkpt>
      <trkpt lat="44.7762" lon="5.06329">
        <ele>573</ele>
        <time>2007-12-03T12:46:06Z</time>
      </trkpt>
      <trkpt lat="44.77604" lon="5.0634">
        <ele>578</ele>
        <time>2007-12-03T12:46:17Z</time>
      </trkpt>
      <trkpt lat="44.77592" lon="5.0635">
        <ele>582</ele>
        <time>2007-12-03T12:46:25Z</time>
      </trkpt>
      <trkpt lat="44.77584" lon="5.06356">
        <ele>585</ele>
        <time>2007-12-03T12:46:32Z</time>
      </trkpt>
      <trkpt lat="44.77573" lon="5.06359">
        <ele>588</ele>
        <time>2007-12-03T12:46:39Z</time>
      </trkpt>
      <trkpt lat="44.7755" lon="5.06364">
        <ele>592</ele>
        <time>2007-12-03T12:46:52Z</time>
      </trkpt>
      <trkpt lat="44.7754" lon="5.06368">
        <ele>595</ele>
        <time>2007-12-03T12:47:00Z</time>
      </trkpt>
      <trkpt lat="44.77529" lon="5.06368">
        <ele>597</ele>
        <time>2007-12-03T12:47:07Z</time>
      </trkpt>
      <trkpt lat="44.77527" lon="5.06368">
        <ele>598</ele>
        <time>2007-12-03T12:47:08Z</time>
      </trkpt>
      <trkpt lat="44.77517" lon="5.06361">
        <ele>599</ele>
        <time>2007-12-03T12:47:15Z</time>
      </trkpt>
      <trkpt lat="44.77512" lon="5.06357">
        <ele>600</ele>
        <time>2007-12-03T12:47:20Z</time>
      </trkpt>
      <trkpt lat="44.77497" lon="5.06356">
        <ele>604</ele>
        <time>2007-12-03T12:47:29Z</time>
      </trkpt>
      <trkpt lat="44.77493" lon="5.06368">
        <ele>606</ele>
        <time>2007-12-03T12:47:35Z</time>
      </trkpt>
      <trkpt lat="44.77491" lon="5.06378">
        <ele>607</ele>
        <time>2007-12-03T12:47:47Z</time>
      </trkpt>
      <trkpt lat="44.77491" lon="5.06378">
        <ele>607</ele>
        <time>2007-12-03T12:49:16Z</time>
      </trkpt>
      <trkpt lat="44.77491" lon="5.06378">
        <ele>607</ele>
        <time>2007-12-03T12:49:17Z</time>
      </trkpt>
      <trkpt lat="44.77494" lon="5.06378">
        <ele>608</ele>
        <time>2007-12-03T12:51:16Z</time>
      </trkpt>
      <trkpt lat="44.77493" lon="5.06379">
        <ele>608</ele>
        <time>2007-12-03T12:54:11Z</time>
      </trkpt>
      <trkpt lat="44.77483" lon="5.06394">
        <ele>606</ele>
        <time>2007-12-03T12:54:20Z</time>
      </trkpt>
      <trkpt lat="44.77481" lon="5.06394">
        <ele>605</ele>
        <time>2007-12-03T12:54:21Z</time>
      </trkpt>
      <trkpt lat="44.77477" lon="5.06396">
        <ele>604</ele>
        <time>2007-12-03T12:54:30Z</time>
      </trkpt>
      <trkpt lat="44.77477" lon="5.06395">
        <ele>604</ele>
        <time>2007-12-03T12:54:52Z</time>
      </trkpt>
      <trkpt lat="44.77465" lon="5.06405">
        <ele>599</ele>
        <time>2007-12-03T12:54:58Z</time>
      </trkpt>
      <trkpt lat="44.77465" lon="5.06406">
        <ele>599</ele>
        <time>2007-12-03T12:54:59Z</time>
      </trkpt>
      <trkpt lat="44.77454" lon="5.06419">
        <ele>594</ele>
        <time>2007-12-03T12:55:07Z</time>
      </trkpt>
      <trkpt lat="44.77442" lon="5.06444">
        <ele>589</ele>
        <time>2007-12-03T12:55:15Z</time>
      </trkpt>
      <trkpt lat="44.7744" lon="5.06447">
        <ele>588</ele>
        <time>2007-12-03T12:55:16Z</time>
      </trkpt>
      <trkpt lat="44.77427" lon="5.06466">
        <ele>584</ele>
        <time>2007-12-03T12:55:23Z</time>
      </trkpt>
      <trkpt lat="44.77422" lon="5.06473">
        <ele>583</ele>
        <time>2007-12-03T12:55:25Z</time>
      </trkpt>
      <trkpt lat="44.77415" lon="5.06481">
        <ele>582</ele>
        <time>2007-12-03T12:55:28Z</time>
      </trkpt>
      <trkpt lat="44.77404" lon="5.065">
        <ele>580</ele>
        <time>2007-12-03T12:55:34Z</time>
      </trkpt>
      <trkpt lat="44.77401" lon="5.06503">
        <ele>579</ele>
        <time>2007-12-03T12:55:35Z</time>
      </trkpt>
      <trkpt lat="44.77373" lon="5.06541">
        <ele>575</ele>
        <time>2007-12-03T12:55:46Z</time>
      </trkpt>
      <trkpt lat="44.77356" lon="5.06557">
        <ele>572</ele>
        <time>2007-12-03T12:55:55Z</time>
      </trkpt>
      <trkpt lat="44.77341" lon="5.06571">
        <ele>569</ele>
        <time>2007-12-03T12:56:01Z</time>
      </trkpt>
      <trkpt lat="44.77326" lon="5.06588">
        <ele>565</ele>
        <time>2007-12-03T12:56:11Z</time>
      </trkpt>
      <trkpt lat="44.77302" lon="5.06607">
        <ele>558</ele>
        <time>2007-12-03T12:56:22Z</time>
      </trkpt>
      <trkpt lat="44.77298" lon="5.06609">
        <ele>557</ele>
        <time>2007-12-03T12:56:51Z</time>
      </trkpt>
      <trkpt lat="44.77295" lon="5.06612">
        <ele>556</ele>
        <time>2007-12-03T12:57:58Z</time>
      </trkpt>
      <trkpt lat="44.7729" lon="5.06621">
        <ele>555</ele>
        <time>2007-12-03T12:58:04Z</time>
      </trkpt>
      <trkpt lat="44.77287" lon="5.06623">
        <ele>554</ele>
        <time>2007-12-03T12:58:05Z</time>
      </trkpt>
      <trkpt lat="44.77273" lon="5.06634">
        <ele>550</ele>
        <time>2007-12-03T12:58:10Z</time>
      </trkpt>
      <trkpt lat="44.77272" lon="5.06637">
        <ele>549</ele>
        <time>2007-12-03T12:58:11Z</time>
      </trkpt>
      <trkpt lat="44.7727" lon="5.06652">
        <ele>550</ele>
        <time>2007-12-03T12:58:16Z</time>
      </trkpt>
      <trkpt lat="44.77271" lon="5.06681">
        <ele>553</ele>
        <time>2007-12-03T12:58:25Z</time>
      </trkpt>
      <trkpt lat="44.77264" lon="5.06697">
        <ele>551</ele>
        <time>2007-12-03T12:58:35Z</time>
      </trkpt>
      <trkpt lat="44.77264" lon="5.06697">
        <ele>551</ele>
        <time>2007-12-03T12:58:36Z</time>
      </trkpt>
      <trkpt lat="44.77264" lon="5.06697">
        <ele>551</ele>
        <time>2007-12-03T12:58:37Z</time>
      </trkpt>
      <trkpt lat="44.77255" lon="5.06708">
        <ele>548</ele>
        <time>2007-12-03T12:59:48Z</time>
      </trkpt>
      <trkpt lat="44.77253" lon="5.06711">
        <ele>547</ele>
        <time>2007-12-03T12:59:52Z</time>
      </trkpt>
      <trkpt lat="44.77251" lon="5.06723">
        <ele>547</ele>
        <time>2007-12-03T12:59:56Z</time>
      </trkpt>
      <trkpt lat="44.77249" lon="5.06734">
        <ele>547</ele>
        <time>2007-12-03T12:59:59Z</time>
      </trkpt>
      <trkpt lat="44.77249" lon="5.06737">
        <ele>547</ele>
        <time>2007-12-03T13:00:00Z</time>
      </trkpt>
      <trkpt lat="44.77246" lon="5.06748">
        <ele>546</ele>
        <time>2007-12-03T13:00:03Z</time>
      </trkpt>
      <trkpt lat="44.77242" lon="5.06767">
        <ele>545</ele>
        <time>2007-12-03T13:00:07Z</time>
      </trkpt>
      <trkpt lat="44.77242" lon="5.06777">
        <ele>544</ele>
        <time>2007-12-03T13:00:10Z</time>
      </trkpt>
      <trkpt lat="44.77241" lon="5.06783">
        <ele>544</ele>
        <time>2007-12-03T13:00:12Z</time>
      </trkpt>
      <trkpt lat="44.77239" lon="5.0681">
        <ele>542</ele>
        <time>2007-12-03T13:00:19Z</time>
      </trkpt>
      <trkpt lat="44.7724" lon="5.06813">
        <ele>542</ele>
        <time>2007-12-03T13:00:20Z</time>
      </trkpt>
      <trkpt lat="44.77241" lon="5.06821">
        <ele>542</ele>
        <time>2007-12-03T13:00:22Z</time>
      </trkpt>
      <trkpt lat="44.77242" lon="5.06824">
        <ele>542</ele>
        <time>2007-12-03T13:00:23Z</time>
      </trkpt>
      <trkpt lat="44.7724" lon="5.06835">
        <ele>540</ele>
        <time>2007-12-03T13:00:26Z</time>
      </trkpt>
      <trkpt lat="44.7724" lon="5.06846">
        <ele>538</ele>
        <time>2007-12-03T13:00:29Z</time>
      </trkpt>
      <trkpt lat="44.77243" lon="5.06861">
        <ele>537</ele>
        <time>2007-12-03T13:00:33Z</time>
      </trkpt>
      <trkpt lat="44.77248" lon="5.06882">
        <ele>536</ele>
        <time>2007-12-03T13:00:39Z</time>
      </trkpt>
      <trkpt lat="44.77247" lon="5.06897">
        <ele>533</ele>
        <time>2007-12-03T13:00:42Z</time>
      </trkpt>
      <trkpt lat="44.77251" lon="5.06919">
        <ele>530</ele>
        <time>2007-12-03T13:00:47Z</time>
      </trkpt>
      <trkpt lat="44.77254" lon="5.06937">
        <ele>528</ele>
        <time>2007-12-03T13:00:52Z</time>
      </trkpt>
      <trkpt lat="44.77259" lon="5.06953">
        <ele>526</ele>
        <time>2007-12-03T13:00:55Z</time>
      </trkpt>
      <trkpt lat="44.77265" lon="5.06973">
        <ele>525</ele>
        <time>2007-12-03T13:00:59Z</time>
      </trkpt>
      <trkpt lat="44.77266" lon="5.06975">
        <ele>525</ele>
        <time>2007-12-03T13:01:00Z</time>
      </trkpt>
      <trkpt lat="44.77272" lon="5.06985">
        <ele>525</ele>
        <time>2007-12-03T13:01:03Z</time>
      </trkpt>
      <trkpt lat="44.77275" lon="5.07002">
        <ele>523</ele>
        <time>2007-12-03T13:01:07Z</time>
      </trkpt>
      <trkpt lat="44.77278" lon="5.07009">
        <ele>522</ele>
        <time>2007-12-03T13:01:09Z</time>
      </trkpt>
      <trkpt lat="44.77284" lon="5.07039">
        <ele>519</ele>
        <time>2007-12-03T13:01:13Z</time>
      </trkpt>
      <trkpt lat="44.7728" lon="5.07047">
        <ele>516</ele>
        <time>2007-12-03T13:01:34Z</time>
      </trkpt>
      <trkpt lat="44.77279" lon="5.07056">
        <ele>515</ele>
        <time>2007-12-03T13:03:10Z</time>
      </trkpt>
      <trkpt lat="44.77283" lon="5.0709">
        <ele>510</ele>
        <time>2007-12-03T13:03:18Z</time>
      </trkpt>
      <trkpt lat="44.77277" lon="5.07117">
        <ele>506</ele>
        <time>2007-12-03T13:03:28Z</time>
      </trkpt>
      <trkpt lat="44.77277" lon="5.07117">
        <ele>506</ele>
        <time>2007-12-03T13:03:29Z</time>
      </trkpt>
      <trkpt lat="44.7727" lon="5.07129">
        <ele>502</ele>
        <time>2007-12-03T13:03:42Z</time>
      </trkpt>
      <trkpt lat="44.77269" lon="5.0713">
        <ele>502</ele>
        <time>2007-12-03T13:03:43Z</time>
      </trkpt>
      <trkpt lat="44.77267" lon="5.0713">
        <ele>502</ele>
        <time>2007-12-03T13:05:13Z</time>
      </trkpt>
      <trkpt lat="44.7726" lon="5.07139">
        <ele>499</ele>
        <time>2007-12-03T13:05:17Z</time>
      </trkpt>
      <trkpt lat="44.77258" lon="5.07143">
        <ele>498</ele>
        <time>2007-12-03T13:05:19Z</time>
      </trkpt>
      <trkpt lat="44.77252" lon="5.07149">
        <ele>497</ele>
        <time>2007-12-03T13:05:22Z</time>
      </trkpt>
      <trkpt lat="44.77247" lon="5.07159">
        <ele>495</ele>
        <time>2007-12-03T13:05:28Z</time>
      </trkpt>
      <trkpt lat="44.77245" lon="5.07165">
        <ele>494</ele>
        <time>2007-12-03T13:05:38Z</time>
      </trkpt>
      <trkpt lat="44.77242" lon="5.07174">
        <ele>492</ele>
        <time>2007-12-03T13:05:41Z</time>
      </trkpt>
      <trkpt lat="44.77242" lon="5.07179">
        <ele>492</ele>
        <time>2007-12-03T13:05:44Z</time>
      </trkpt>
      <trkpt lat="44.77242" lon="5.07188">
        <ele>491</ele>
        <time>2007-12-03T13:05:46Z</time>
      </trkpt>
      <trkpt lat="44.77237" lon="5.07212">
        <ele>488</ele>
        <time>2007-12-03T13:05:51Z</time>
      </trkpt>
      <trkpt lat="44.77239" lon="5.07219">
        <ele>488</ele>
        <time>2007-12-03T13:05:53Z</time>
      </trkpt>
      <trkpt lat="44.77239" lon="5.07232">
        <ele>487</ele>
        <time>2007-12-03T13:05:58Z</time>
      </trkpt>
      <trkpt lat="44.77239" lon="5.07233">
        <ele>487</ele>
        <time>2007-12-03T13:05:59Z</time>
      </trkpt>
      <trkpt lat="44.77234" lon="5.07248">
        <ele>485</ele>
        <time>2007-12-03T13:07:10Z</time>
      </trkpt>
      <trkpt lat="44.77232" lon="5.07257">
        <ele>484</ele>
        <time>2007-12-03T13:07:25Z</time>
      </trkpt>
      <trkpt lat="44.77229" lon="5.07262">
        <ele>483</ele>
        <time>2007-12-03T13:08:31Z</time>
      </trkpt>
      <trkpt lat="44.77228" lon="5.07263">
        <ele>483</ele>
        <time>2007-12-03T13:09:13Z</time>
      </trkpt>
      <trkpt lat="44.77224" lon="5.07266">
        <ele>482</ele>
        <time>2007-12-03T13:09:25Z</time>
      </trkpt>
      <trkpt lat="44.77217" lon="5.07268">
        <ele>481</ele>
        <time>2007-12-03T13:09:38Z</time>
      </trkpt>
      <trkpt lat="44.77216" lon="5.07265">
        <ele>481</ele>
        <time>2007-12-03T13:10:54Z</time>
      </trkpt>
      <trkpt lat="44.77216" lon="5.07265">
        <ele>481</ele>
        <time>2007-12-03T13:10:55Z</time>
      </trkpt>
      <trkpt lat="44.77214" lon="5.07266">
        <ele>481</ele>
        <time>2007-12-03T13:10:57Z</time>
      </trkpt>
      <trkpt lat="44.77197" lon="5.07269">
        <ele>478</ele>
        <time>2007-12-03T13:11:04Z</time>
      </trkpt>
      <trkpt lat="44.77191" lon="5.07271">
        <ele>477</ele>
        <time>2007-12-03T13:11:08Z</time>
      </trkpt>
      <trkpt lat="44.7718" lon="5.07275">
        <ele>474</ele>
        <time>2007-12-03T13:11:18Z</time>
      </trkpt>
      <trkpt lat="44.77181" lon="5.07278">
        <ele>474</ele>
        <time>2007-12-03T13:11:44Z</time>
      </trkpt>
      <trkpt lat="44.7718" lon="5.07278">
        <ele>474</ele>
        <time>2007-12-03T13:12:46Z</time>
      </trkpt>
      <trkpt lat="44.77175" lon="5.07287">
        <ele>473</ele>
        <time>2007-12-03T13:12:50Z</time>
      </trkpt>
      <trkpt lat="44.7717" lon="5.07302">
        <ele>471</ele>
        <time>2007-12-03T13:12:56Z</time>
      </trkpt>
      <trkpt lat="44.77163" lon="5.07316">
        <ele>469</ele>
        <time>2007-12-03T13:12:59Z</time>
      </trkpt>
      <trkpt lat="44.77157" lon="5.07328">
        <ele>468</ele>
        <time>2007-12-03T13:13:08Z</time>
      </trkpt>
      <trkpt lat="44.77157" lon="5.07328">
        <ele>468</ele>
        <time>2007-12-03T13:13:19Z</time>
      </trkpt>
      <trkpt lat="44.77152" lon="5.07336">
        <ele>467</ele>
        <time>2007-12-03T13:13:27Z</time>
      </trkpt>
      <trkpt lat="44.77135" lon="5.07353">
        <ele>464</ele>
        <time>2007-12-03T13:13:36Z</time>
      </trkpt>
      <trkpt lat="44.77133" lon="5.07354">
        <ele>463</ele>
        <time>2007-12-03T13:13:37Z</time>
      </trkpt>
      <trkpt lat="44.7713" lon="5.07356">
        <ele>463</ele>
        <time>2007-12-03T13:13:47Z</time>
      </trkpt>
      <trkpt lat="44.7713" lon="5.07356">
        <ele>463</ele>
        <time>2007-12-03T13:15:01Z</time>
      </trkpt>
      <trkpt lat="44.77106" lon="5.07388">
        <ele>460</ele>
        <time>2007-12-03T13:15:11Z</time>
      </trkpt>
      <trkpt lat="44.77068" lon="5.07426">
        <ele>455</ele>
        <time>2007-12-03T13:15:19Z</time>
      </trkpt>
      <trkpt lat="44.77057" lon="5.07438">
        <ele>454</ele>
        <time>2007-12-03T13:15:21Z</time>
      </trkpt>
      <trkpt lat="44.7705" lon="5.07443">
        <ele>454</ele>
        <time>2007-12-03T13:15:22Z</time>
      </trkpt>
      <trkpt lat="44.7701" lon="5.0748">
        <ele>449</ele>
        <time>2007-12-03T13:15:28Z</time>
      </trkpt>
      <trkpt lat="44.76985" lon="5.07506">
        <ele>449</ele>
        <time>2007-12-03T13:15:32Z</time>
      </trkpt>
      <trkpt lat="44.76971" lon="5.07525">
        <ele>447</ele>
        <time>2007-12-03T13:15:35Z</time>
      </trkpt>
      <trkpt lat="44.76947" lon="5.07543">
        <ele>443</ele>
        <time>2007-12-03T13:15:39Z</time>
      </trkpt>
      <trkpt lat="44.76929" lon="5.07559">
        <ele>443</ele>
        <time>2007-12-03T13:15:42Z</time>
      </trkpt>
      <trkpt lat="44.76913" lon="5.07573">
        <ele>441</ele>
        <time>2007-12-03T13:15:45Z</time>
      </trkpt>
      <trkpt lat="44.76904" lon="5.07579">
        <ele>440</ele>
        <time>2007-12-03T13:15:47Z</time>
      </trkpt>
      <trkpt lat="44.76894" lon="5.07584">
        <ele>439</ele>
        <time>2007-12-03T13:15:50Z</time>
      </trkpt>
      <trkpt lat="44.76889" lon="5.07587">
        <ele>438</ele>
        <time>2007-12-03T13:16:01Z</time>
      </trkpt>
      <trkpt lat="44.7689" lon="5.07593">
        <ele>438</ele>
        <time>2007-12-03T13:16:04Z</time>
      </trkpt>
      <trkpt lat="44.76888" lon="5.07597">
        <ele>438</ele>
        <time>2007-12-03T13:16:18Z</time>
      </trkpt>
      <trkpt lat="44.76889" lon="5.07597">
        <ele>438</ele>
        <time>2007-12-03T13:16:20Z</time>
      </trkpt>
      <trkpt lat="44.76884" lon="5.07603">
        <ele>438</ele>
        <time>2007-12-03T13:16:36Z</time>
      </trkpt>
      <trkpt lat="44.76861" lon="5.07622">
        <ele>436</ele>
        <time>2007-12-03T13:18:00Z</time>
      </trkpt>
      <trkpt lat="44.76835" lon="5.07629">
        <ele>430</ele>
        <time>2007-12-03T13:18:06Z</time>
      </trkpt>
      <trkpt lat="44.76829" lon="5.07632">
        <ele>429</ele>
        <time>2007-12-03T13:18:08Z</time>
      </trkpt>
      <trkpt lat="44.76822" lon="5.07635">
        <ele>427</ele>
        <time>2007-12-03T13:18:10Z</time>
      </trkpt>
      <trkpt lat="44.76801" lon="5.07641">
        <ele>422</ele>
        <time>2007-12-03T13:18:15Z</time>
      </trkpt>
      <trkpt lat="44.76777" lon="5.07645">
        <ele>417</ele>
        <time>2007-12-03T13:18:22Z</time>
      </trkpt>
      <trkpt lat="44.76764" lon="5.07648">
        <ele>415</ele>
        <time>2007-12-03T13:18:25Z</time>
      </trkpt>
      <trkpt lat="44.76761" lon="5.07649">
        <ele>414</ele>
        <time>2007-12-03T13:18:26Z</time>
      </trkpt>
      <trkpt lat="44.76745" lon="5.0765">
        <ele>411</ele>
        <time>2007-12-03T13:18:32Z</time>
      </trkpt>
      <trkpt lat="44.76729" lon="5.07657">
        <ele>410</ele>
        <time>2007-12-03T13:18:37Z</time>
      </trkpt>
      <trkpt lat="44.76706" lon="5.0767">
        <ele>408</ele>
        <time>2007-12-03T13:18:45Z</time>
      </trkpt>
      <trkpt lat="44.76692" lon="5.0768">
        <ele>408</ele>
        <time>2007-12-03T13:18:48Z</time>
      </trkpt>
      <trkpt lat="44.76667" lon="5.07693">
        <ele>406</ele>
        <time>2007-12-03T13:18:53Z</time>
      </trkpt>
      <trkpt lat="44.76662" lon="5.07696">
        <ele>405</ele>
        <time>2007-12-03T13:18:56Z</time>
      </trkpt>
      <trkpt lat="44.76661" lon="5.07696">
        <ele>405</ele>
        <time>2007-12-03T13:20:29Z</time>
      </trkpt>
      <trkpt lat="44.76661" lon="5.07696">
        <ele>405</ele>
        <time>2007-12-03T13:20:31Z</time>
      </trkpt>
      <trkpt lat="44.76661" lon="5.07696">
        <ele>405</ele>
        <time>2007-12-03T13:20:32Z</time>
      </trkpt>
      <trkpt lat="44.76661" lon="5.07696">
        <ele>405</ele>
        <time>2007-12-03T13:20:35Z</time>
      </trkpt>
      <trkpt lat="44.76661" lon="5.07696">
        <ele>405</ele>
        <time>2007-12-03T13:20:43Z</time>
      </trkpt>
      <trkpt lat="44.76661" lon="5.07696">
        <ele>405</ele>
        <time>2007-12-03T13:20:51Z</time>
      </trkpt>
      <trkpt lat="44.76661" lon="5.07696">
        <ele>405</ele>
        <time>2007-12-03T13:21:08Z</time>
      </trkpt>
      <trkpt lat="44.76642" lon="5.07704">
        <ele>404</ele>
        <time>2007-12-03T13:21:14Z</time>
      </trkpt>
      <trkpt lat="44.76615" lon="5.07713">
        <ele>402</ele>
        <time>2007-12-03T13:21:18Z</time>
      </trkpt>
      <trkpt lat="44.76594" lon="5.07722">
        <ele>401</ele>
        <time>2007-12-03T13:21:21Z</time>
      </trkpt>
      <trkpt lat="44.76574" lon="5.07732">
        <ele>400</ele>
        <time>2007-12-03T13:21:24Z</time>
      </trkpt>
      <trkpt lat="44.76543" lon="5.07751">
        <ele>395</ele>
        <time>2007-12-03T13:21:30Z</time>
      </trkpt>
      <trkpt lat="44.76525" lon="5.07761">
        <ele>391</ele>
        <time>2007-12-03T13:21:34Z</time>
      </trkpt>
      <trkpt lat="44.76503" lon="5.07774">
        <ele>387</ele>
        <time>2007-12-03T13:21:40Z</time>
      </trkpt>
      <trkpt lat="44.76492" lon="5.07781">
        <ele>384</ele>
        <time>2007-12-03T13:21:43Z</time>
      </trkpt>
      <trkpt lat="44.76484" lon="5.07782">
        <ele>383</ele>
        <time>2007-12-03T13:21:45Z</time>
      </trkpt>
      <trkpt lat="44.7648" lon="5.07782">
        <ele>382</ele>
        <time>2007-12-03T13:21:46Z</time>
      </trkpt>
      <trkpt lat="44.76464" lon="5.07774">
        <ele>380</ele>
        <time>2007-12-03T13:21:51Z</time>
      </trkpt>
      <trkpt lat="44.76458" lon="5.07774">
        <ele>379</ele>
        <time>2007-12-03T13:22:01Z</time>
      </trkpt>
      <trkpt lat="44.76455" lon="5.07773">
        <ele>378</ele>
        <time>2007-12-03T13:22:11Z</time>
      </trkpt>
      <trkpt lat="44.76463" lon="5.07774">
        <ele>379</ele>
        <time>2007-12-03T13:23:14Z</time>
      </trkpt>
      <trkpt lat="44.76463" lon="5.07774">
        <ele>379</ele>
        <time>2007-12-03T13:23:21Z</time>
      </trkpt>
      <trkpt lat="44.76465" lon="5.07775">
        <ele>380</ele>
        <time>2007-12-03T13:23:34Z</time>
      </trkpt>
      <trkpt lat="44.76465" lon="5.07775">
        <ele>380</ele>
        <time>2007-12-03T13:23:35Z</time>
      </trkpt>
      <trkpt lat="44.76467" lon="5.07774">
        <ele>380</ele>
        <time>2007-12-03T13:24:19Z</time>
      </trkpt>
      <trkpt lat="44.76467" lon="5.07774">
        <ele>380</ele>
        <time>2007-12-03T13:24:40Z</time>
      </trkpt>
      <trkpt lat="44.76467" lon="5.07774">
        <ele>380</ele>
        <time>2007-12-03T13:24:46Z</time>
      </trkpt>
      <trkpt lat="44.76467" lon="5.07774">
        <ele>380</ele>
        <time>2007-12-03T13:24:48Z</time>
      </trkpt>
      <trkpt lat="44.76467" lon="5.07774">
        <ele>380</ele>
        <time>2007-12-03T13:24:57Z</time>
      </trkpt>
      <trkpt lat="44.76467" lon="5.07774">
        <ele>380</ele>
        <time>2007-12-03T13:26:16Z</time>
      </trkpt>
      <trkpt lat="44.76461" lon="5.07758">
        <ele>379</ele>
        <time>2007-12-03T13:26:26Z</time>
      </trkpt>
      <trkpt lat="44.76459" lon="5.07758">
        <ele>379</ele>
        <time>2007-12-03T13:27:12Z</time>
      </trkpt>
      <trkpt lat="44.76457" lon="5.07749">
        <ele>379</ele>
        <time>2007-12-03T13:27:37Z</time>
      </trkpt>
      <trkpt lat="44.76457" lon="5.07748">
        <ele>379</ele>
        <time>2007-12-03T13:27:47Z</time>
      </trkpt>
      <trkpt lat="44.76458" lon="5.07748">
        <ele>379</ele>
        <time>2007-12-03T13:28:19Z</time>
      </trkpt>
      <trkpt lat="44.76454" lon="5.07745">
        <ele>378</ele>
        <time>2007-12-03T13:29:48Z</time>
      </trkpt>
      <trkpt lat="44.76447" lon="5.0774">
        <ele>377</ele>
        <time>2007-12-03T13:29:52Z</time>
      </trkpt>
      <trkpt lat="44.76434" lon="5.07737">
        <ele>375</ele>
        <time>2007-12-03T13:29:58Z</time>
      </trkpt>
      <trkpt lat="44.76424" lon="5.07733">
        <ele>374</ele>
        <time>2007-12-03T13:30:08Z</time>
      </trkpt>
      <trkpt lat="44.76409" lon="5.07737">
        <ele>372</ele>
        <time>2007-12-03T13:30:14Z</time>
      </trkpt>
      <trkpt lat="44.764" lon="5.07731">
        <ele>371</ele>
        <time>2007-12-03T13:30:23Z</time>
      </trkpt>
      <trkpt lat="44.76401" lon="5.07731">
        <ele>371</ele>
        <time>2007-12-03T13:30:25Z</time>
      </trkpt>
      <trkpt lat="44.764" lon="5.07731">
        <ele>371</ele>
        <time>2007-12-03T13:30:46Z</time>
      </trkpt>
      <trkpt lat="44.76399" lon="5.07731">
        <ele>371</ele>
        <time>2007-12-03T13:31:14Z</time>
      </trkpt>
      <trkpt lat="44.76399" lon="5.07731">
        <ele>371</ele>
        <time>2007-12-03T13:31:15Z</time>
      </trkpt>
      <trkpt lat="44.764" lon="5.07731">
        <ele>371</ele>
        <time>2007-12-03T13:31:17Z</time>
      </trkpt>
      <trkpt lat="44.764" lon="5.07732">
        <ele>371</ele>
        <time>2007-12-03T13:31:18Z</time>
      </trkpt>
      <trkpt lat="44.7638" lon="5.07734">
        <ele>369</ele>
        <time>2007-12-03T13:31:27Z</time>
      </trkpt>
      <trkpt lat="44.76375" lon="5.07732">
        <ele>369</ele>
        <time>2007-12-03T13:31:28Z</time>
      </trkpt>
      <trkpt lat="44.76347" lon="5.07734">
        <ele>367</ele>
        <time>2007-12-03T13:31:35Z</time>
      </trkpt>
      <trkpt lat="44.76339" lon="5.07732">
        <ele>366</ele>
        <time>2007-12-03T13:31:45Z</time>
      </trkpt>
      <trkpt lat="44.76334" lon="5.07731">
        <ele>366</ele>
        <time>2007-12-03T13:32:12Z</time>
      </trkpt>
      <trkpt lat="44.76333" lon="5.07732">
        <ele>366</ele>
        <time>2007-12-03T13:35:21Z</time>
      </trkpt>
      <trkpt lat="44.76326" lon="5.07733">
        <ele>365</ele>
        <time>2007-12-03T13:35:25Z</time>
      </trkpt>
      <trkpt lat="44.76313" lon="5.07737">
        <ele>364</ele>
        <time>2007-12-03T13:35:30Z</time>
      </trkpt>
      <trkpt lat="44.76301" lon="5.0774">
        <ele>363</ele>
        <time>2007-12-03T13:35:33Z</time>
      </trkpt>
      <trkpt lat="44.76284" lon="5.07747">
        <ele>360</ele>
        <time>2007-12-03T13:35:43Z</time>
      </trkpt>
      <trkpt lat="44.76283" lon="5.07746">
        <ele>359</ele>
        <time>2007-12-03T13:36:09Z</time>
      </trkpt>
      <trkpt lat="44.76264" lon="5.07743">
        <ele>356</ele>
        <time>2007-12-03T13:36:15Z</time>
      </trkpt>
      <trkpt lat="44.76262" lon="5.07743">
        <ele>355</ele>
        <time>2007-12-03T13:36:16Z</time>
      </trkpt>
      <trkpt lat="44.76245" lon="5.07744">
        <ele>352</ele>
        <time>2007-12-03T13:36:27Z</time>
      </trkpt>
      <trkpt lat="44.76244" lon="5.07741">
        <ele>352</ele>
        <time>2007-12-03T13:37:40Z</time>
      </trkpt>
      <trkpt lat="44.76231" lon="5.07737">
        <ele>350</ele>
        <time>2007-12-03T13:37:45Z</time>
      </trkpt>
      <trkpt lat="44.76206" lon="5.07735">
        <ele>345</ele>
        <time>2007-12-03T13:37:50Z</time>
      </trkpt>
      <trkpt lat="44.76185" lon="5.07731">
        <ele>341</ele>
        <time>2007-12-03T13:37:54Z</time>
      </trkpt>
      <trkpt lat="44.76179" lon="5.07729">
        <ele>340</ele>
        <time>2007-12-03T13:37:55Z</time>
      </trkpt>
      <trkpt lat="44.76169" lon="5.07727">
        <ele>338</ele>
        <time>2007-12-03T13:37:58Z</time>
      </trkpt>
      <trkpt lat="44.76169" lon="5.07726">
        <ele>338</ele>
        <time>2007-12-03T13:38:05Z</time>
      </trkpt>
      <trkpt lat="44.7617" lon="5.07726">
        <ele>338</ele>
        <time>2007-12-03T13:38:17Z</time>
      </trkpt>
      <trkpt lat="44.7617" lon="5.07726">
        <ele>338</ele>
        <time>2007-12-03T13:38:18Z</time>
      </trkpt>
      <trkpt lat="44.7617" lon="5.07726">
        <ele>338</ele>
        <time>2007-12-03T13:38:19Z</time>
      </trkpt>
      <trkpt lat="44.7616" lon="5.07723">
        <ele>336</ele>
        <time>2007-12-03T13:38:24Z</time>
      </trkpt>
      <trkpt lat="44.76119" lon="5.07709">
        <ele>328</ele>
        <time>2007-12-03T13:38:29Z</time>
      </trkpt>
      <trkpt lat="44.76095" lon="5.07702">
        <ele>323</ele>
        <time>2007-12-03T13:38:32Z</time>
      </trkpt>
      <trkpt lat="44.76076" lon="5.07689">
        <ele>321</ele>
        <time>2007-12-03T13:38:36Z</time>
      </trkpt>
      <trkpt lat="44.76068" lon="5.07681">
        <ele>320</ele>
        <time>2007-12-03T13:38:39Z</time>
      </trkpt>
      <trkpt lat="44.76063" lon="5.0768">
        <ele>319</ele>
        <time>2007-12-03T13:38:50Z</time>
      </trkpt>
      <trkpt lat="44.76062" lon="5.07674">
        <ele>319</ele>
        <time>2007-12-03T13:39:16Z</time>
      </trkpt>
      <trkpt lat="44.76061" lon="5.07673">
        <ele>319</ele>
        <time>2007-12-03T13:41:09Z</time>
      </trkpt>
      <trkpt lat="44.76064" lon="5.07688">
        <ele>319</ele>
        <time>2007-12-03T13:41:15Z</time>
      </trkpt>
      <trkpt lat="44.76069" lon="5.07698">
        <ele>320</ele>
        <time>2007-12-03T13:41:31Z</time>
      </trkpt>
      <trkpt lat="44.76069" lon="5.07698">
        <ele>320</ele>
        <time>2007-12-03T13:41:33Z</time>
      </trkpt>
      <trkpt lat="44.76069" lon="5.07699">
        <ele>320</ele>
        <time>2007-12-03T13:41:34Z</time>
      </trkpt>
      <trkpt lat="44.7607" lon="5.07707">
        <ele>320</ele>
        <time>2007-12-03T13:41:46Z</time>
      </trkpt>
      <trkpt lat="44.76071" lon="5.07708">
        <ele>320</ele>
        <time>2007-12-03T13:44:14Z</time>
      </trkpt>
      <trkpt lat="44.76065" lon="5.07712">
        <ele>319</ele>
        <time>2007-12-03T13:44:21Z</time>
      </trkpt>
      <trkpt lat="44.76049" lon="5.0768">
        <ele>317</ele>
        <time>2007-12-03T13:44:31Z</time>
      </trkpt>
      <trkpt lat="44.76041" lon="5.07643">
        <ele>316</ele>
        <time>2007-12-03T13:44:44Z</time>
      </trkpt>
      <trkpt lat="44.76038" lon="5.07633">
        <ele>315</ele>
        <time>2007-12-03T13:44:46Z</time>
      </trkpt>
      <trkpt lat="44.7603" lon="5.0761">
        <ele>314</ele>
        <time>2007-12-03T13:44:49Z</time>
      </trkpt>
      <trkpt lat="44.76018" lon="5.07566">
        <ele>313</ele>
        <time>2007-12-03T13:44:55Z</time>
      </trkpt>
      <trkpt lat="44.76012" lon="5.07555">
        <ele>313</ele>
        <time>2007-12-03T13:45:04Z</time>
      </trkpt>
      <trkpt lat="44.76012" lon="5.07556">
        <ele>313</ele>
        <time>2007-12-03T13:45:40Z</time>
      </trkpt>
      <trkpt lat="44.76002" lon="5.07543">
        <ele>312</ele>
        <time>2007-12-03T13:46:26Z</time>
      </trkpt>
      <trkpt lat="44.75976" lon="5.07526">
        <ele>312</ele>
        <time>2007-12-03T13:46:37Z</time>
      </trkpt>
      <trkpt lat="44.75975" lon="5.07526">
        <ele>312</ele>
        <time>2007-12-03T13:47:45Z</time>
      </trkpt>
      <trkpt lat="44.75975" lon="5.07526">
        <ele>312</ele>
        <time>2007-12-03T13:47:46Z</time>
      </trkpt>
      <trkpt lat="44.75975" lon="5.07526">
        <ele>312</ele>
        <time>2007-12-03T13:47:47Z</time>
      </trkpt>
      <trkpt lat="44.75974" lon="5.07526">
        <ele>312</ele>
        <time>2007-12-03T13:47:49Z</time>
      </trkpt>
      <trkpt lat="44.75967" lon="5.07524">
        <ele>312</ele>
        <time>2007-12-03T13:47:51Z</time>
      </trkpt>
      <trkpt lat="44.75895" lon="5.07529">
        <ele>312</ele>
        <time>2007-12-03T13:48:03Z</time>
      </trkpt>
      <trkpt lat="44.75835" lon="5.07537">
        <ele>308</ele>
        <time>2007-12-03T13:48:14Z</time>
      </trkpt>
      <trkpt lat="44.75818" lon="5.07537">
        <ele>306</ele>
        <time>2007-12-03T13:48:23Z</time>
      </trkpt>
      <trkpt lat="44.75816" lon="5.07534">
        <ele>306</ele>
        <time>2007-12-03T13:48:39Z</time>
      </trkpt>
      <trkpt lat="44.75799" lon="5.07529">
        <ele>306</ele>
        <time>2007-12-03T13:51:00Z</time>
      </trkpt>
      <trkpt lat="44.75794" lon="5.07528">
        <ele>305</ele>
        <time>2007-12-03T13:51:09Z</time>
      </trkpt>
      <trkpt lat="44.75793" lon="5.07528">
        <ele>305</ele>
        <time>2007-12-03T13:51:15Z</time>
      </trkpt>
      <trkpt lat="44.75764" lon="5.07517">
        <ele>304</ele>
        <time>2007-12-03T13:51:23Z</time>
      </trkpt>
      <trkpt lat="44.75726" lon="5.0749">
        <ele>304</ele>
        <time>2007-12-03T13:51:30Z</time>
      </trkpt>
      <trkpt lat="44.75674" lon="5.07453">
        <ele>302</ele>
        <time>2007-12-03T13:51:39Z</time>
      </trkpt>
      <trkpt lat="44.75598" lon="5.07395">
        <ele>299</ele>
        <time>2007-12-03T13:51:52Z</time>
      </trkpt>
      <trkpt lat="44.75535" lon="5.0734">
        <ele>301</ele>
        <time>2007-12-03T13:52:05Z</time>
      </trkpt>
      <trkpt lat="44.75519" lon="5.07318">
        <ele>302</ele>
        <time>2007-12-03T13:52:13Z</time>
      </trkpt>
      <trkpt lat="44.75518" lon="5.07316">
        <ele>302</ele>
        <time>2007-12-03T13:52:14Z</time>
      </trkpt>
      <trkpt lat="44.75512" lon="5.07309">
        <ele>302</ele>
        <time>2007-12-03T13:52:20Z</time>
      </trkpt>
      <trkpt lat="44.75506" lon="5.07301">
        <ele>302</ele>
        <time>2007-12-03T13:52:26Z</time>
      </trkpt>
      <trkpt lat="44.75477" lon="5.07262">
        <ele>305</ele>
        <time>2007-12-03T13:52:38Z</time>
      </trkpt>
      <trkpt lat="44.75453" lon="5.07237">
        <ele>305</ele>
        <time>2007-12-03T13:52:49Z</time>
      </trkpt>
      <trkpt lat="44.75442" lon="5.07228">
        <ele>305</ele>
        <time>2007-12-03T13:52:53Z</time>
      </trkpt>
      <trkpt lat="44.75437" lon="5.07222">
        <ele>305</ele>
        <time>2007-12-03T13:52:55Z</time>
      </trkpt>
      <trkpt lat="44.75417" lon="5.07194">
        <ele>307</ele>
        <time>2007-12-03T13:53:04Z</time>
      </trkpt>
      <trkpt lat="44.7541" lon="5.07186">
        <ele>307</ele>
        <time>2007-12-03T13:53:07Z</time>
      </trkpt>
      <trkpt lat="44.75381" lon="5.07155">
        <ele>310</ele>
        <time>2007-12-03T13:53:20Z</time>
      </trkpt>
      <trkpt lat="44.75336" lon="5.07112">
        <ele>313</ele>
        <time>2007-12-03T13:53:34Z</time>
      </trkpt>
      <trkpt lat="44.75288" lon="5.07069">
        <ele>316</ele>
        <time>2007-12-03T13:53:48Z</time>
      </trkpt>
      <trkpt lat="44.75232" lon="5.0703">
        <ele>316</ele>
        <time>2007-12-03T13:54:03Z</time>
      </trkpt>
      <trkpt lat="44.75195" lon="5.07002">
        <ele>314</ele>
        <time>2007-12-03T13:54:14Z</time>
      </trkpt>
      <trkpt lat="44.75173" lon="5.06979">
        <ele>311</ele>
        <time>2007-12-03T13:54:24Z</time>
      </trkpt>
      <trkpt lat="44.75189" lon="5.06945">
        <ele>313</ele>
        <time>2007-12-03T13:54:33Z</time>
      </trkpt>
      <trkpt lat="44.75218" lon="5.06906">
        <ele>319</ele>
        <time>2007-12-03T13:54:44Z</time>
      </trkpt>
      <trkpt lat="44.75241" lon="5.0686">
        <ele>317</ele>
        <time>2007-12-03T13:54:55Z</time>
      </trkpt>
      <trkpt lat="44.75266" lon="5.06827">
        <ele>321</ele>
        <time>2007-12-03T13:55:05Z</time>
      </trkpt>
      <trkpt lat="44.75285" lon="5.06789">
        <ele>321</ele>
        <time>2007-12-03T13:55:14Z</time>
      </trkpt>
      <trkpt lat="44.75291" lon="5.06776">
        <ele>323</ele>
        <time>2007-12-03T13:55:17Z</time>
      </trkpt>
      <trkpt lat="44.75285" lon="5.06763">
        <ele>324</ele>
        <time>2007-12-03T13:55:21Z</time>
      </trkpt>
      <trkpt lat="44.75276" lon="5.06756">
        <ele>324</ele>
        <time>2007-12-03T13:55:23Z</time>
      </trkpt>
      <trkpt lat="44.75262" lon="5.06755">
        <ele>324</ele>
        <time>2007-12-03T13:55:28Z</time>
      </trkpt>
      <trkpt lat="44.75226" lon="5.06767">
        <ele>322</ele>
        <time>2007-12-03T13:55:39Z</time>
      </trkpt>
      <trkpt lat="44.752" lon="5.06782">
        <ele>321</ele>
        <time>2007-12-03T13:55:52Z</time>
      </trkpt>
      <trkpt lat="44.75186" lon="5.06786">
        <ele>321</ele>
        <time>2007-12-03T13:55:56Z</time>
      </trkpt>
      <trkpt lat="44.75154" lon="5.06789">
        <ele>322</ele>
        <time>2007-12-03T13:56:01Z</time>
      </trkpt>
      <trkpt lat="44.75139" lon="5.06786">
        <ele>323</ele>
        <time>2007-12-03T13:56:04Z</time>
      </trkpt>
      <trkpt lat="44.75124" lon="5.0678">
        <ele>324</ele>
        <time>2007-12-03T13:56:08Z</time>
      </trkpt>
      <trkpt lat="44.75112" lon="5.06769">
        <ele>324</ele>
        <time>2007-12-03T13:56:11Z</time>
      </trkpt>
      <trkpt lat="44.75098" lon="5.0675">
        <ele>324</ele>
        <time>2007-12-03T13:56:15Z</time>
      </trkpt>
      <trkpt lat="44.75077" lon="5.06669">
        <ele>326</ele>
        <time>2007-12-03T13:56:31Z</time>
      </trkpt>
      <trkpt lat="44.75076" lon="5.06664">
        <ele>326</ele>
        <time>2007-12-03T13:56:32Z</time>
      </trkpt>
      <trkpt lat="44.75074" lon="5.06654">
        <ele>326</ele>
        <time>2007-12-03T13:56:34Z</time>
      </trkpt>
      <trkpt lat="44.75048" lon="5.06629">
        <ele>329</ele>
        <time>2007-12-03T13:56:43Z</time>
      </trkpt>
      <trkpt lat="44.7502" lon="5.06621">
        <ele>330</ele>
        <time>2007-12-03T13:56:49Z</time>
      </trkpt>
      <trkpt lat="44.74961" lon="5.06616">
        <ele>331</ele>
        <time>2007-12-03T13:57:02Z</time>
      </trkpt>
      <trkpt lat="44.74952" lon="5.06614">
        <ele>331</ele>
        <time>2007-12-03T13:57:04Z</time>
      </trkpt>
      <trkpt lat="44.74927" lon="5.06599">
        <ele>332</ele>
        <time>2007-12-03T13:57:10Z</time>
      </trkpt>
      <trkpt lat="44.74917" lon="5.0659">
        <ele>332</ele>
        <time>2007-12-03T13:57:13Z</time>
      </trkpt>
      <trkpt lat="44.74912" lon="5.06585">
        <ele>332</ele>
        <time>2007-12-03T13:57:15Z</time>
      </trkpt>
      <trkpt lat="44.749" lon="5.0657">
        <ele>333</ele>
        <time>2007-12-03T13:57:19Z</time>
      </trkpt>
      <trkpt lat="44.74868" lon="5.06513">
        <ele>335</ele>
        <time>2007-12-03T13:57:31Z</time>
      </trkpt>
      <trkpt lat="44.74832" lon="5.06441">
        <ele>331</ele>
        <time>2007-12-03T13:57:46Z</time>
      </trkpt>
      <trkpt lat="44.74828" lon="5.06435">
        <ele>331</ele>
        <time>2007-12-03T13:57:48Z</time>
      </trkpt>
      <trkpt lat="44.74812" lon="5.06431">
        <ele>329</ele>
        <time>2007-12-03T13:57:59Z</time>
      </trkpt>
      <trkpt lat="44.74812" lon="5.06432">
        <ele>329</ele>
        <time>2007-12-03T13:58:51Z</time>
      </trkpt>
      <trkpt lat="44.74812" lon="5.06432">
        <ele>329</ele>
        <time>2007-12-03T13:58:52Z</time>
      </trkpt>
      <trkpt lat="44.74812" lon="5.06432">
        <ele>329</ele>
        <time>2007-12-03T13:58:53Z</time>
      </trkpt>
      <trkpt lat="44.74789" lon="5.0642">
        <ele>326</ele>
        <time>2007-12-03T13:59:00Z</time>
      </trkpt>
      <trkpt lat="44.74779" lon="5.06414">
        <ele>326</ele>
        <time>2007-12-03T13:59:02Z</time>
      </trkpt>
      <trkpt lat="44.74769" lon="5.06406">
        <ele>326</ele>
        <time>2007-12-03T13:59:04Z</time>
      </trkpt>
      <trkpt lat="44.74743" lon="5.06393">
        <ele>325</ele>
        <time>2007-12-03T13:59:10Z</time>
      </trkpt>
      <trkpt lat="44.74711" lon="5.06388">
        <ele>326</ele>
        <time>2007-12-03T13:59:17Z</time>
      </trkpt>
      <trkpt lat="44.74698" lon="5.06384">
        <ele>327</ele>
        <time>2007-12-03T13:59:26Z</time>
      </trkpt>
      <trkpt lat="44.74677" lon="5.0638">
        <ele>328</ele>
        <time>2007-12-03T13:59:45Z</time>
      </trkpt>
      <trkpt lat="44.74646" lon="5.06374">
        <ele>332</ele>
        <time>2007-12-03T13:59:55Z</time>
      </trkpt>
      <trkpt lat="44.7462" lon="5.06368">
        <ele>335</ele>
        <time>2007-12-03T14:00:01Z</time>
      </trkpt>
      <trkpt lat="44.74602" lon="5.06362">
        <ele>335</ele>
        <time>2007-12-03T14:00:05Z</time>
      </trkpt>
      <trkpt lat="44.74593" lon="5.0636">
        <ele>335</ele>
        <time>2007-12-03T14:00:07Z</time>
      </trkpt>
      <trkpt lat="44.74568" lon="5.06353">
        <ele>335</ele>
        <time>2007-12-03T14:00:13Z</time>
      </trkpt>
      <trkpt lat="44.7456" lon="5.06351">
        <ele>335</ele>
        <time>2007-12-03T14:00:15Z</time>
      </trkpt>
      <trkpt lat="44.74508" lon="5.06337">
        <ele>338</ele>
        <time>2007-12-03T14:00:28Z</time>
      </trkpt>
      <trkpt lat="44.7449" lon="5.06329">
        <ele>338</ele>
        <time>2007-12-03T14:00:35Z</time>
      </trkpt>
      <trkpt lat="44.74461" lon="5.06325">
        <ele>340</ele>
        <time>2007-12-03T14:00:47Z</time>
      </trkpt>
      <trkpt lat="44.74442" lon="5.06323">
        <ele>340</ele>
        <time>2007-12-03T14:00:56Z</time>
      </trkpt>
      <trkpt lat="44.7444" lon="5.06323">
        <ele>340</ele>
        <time>2007-12-03T14:01:17Z</time>
      </trkpt>
      <trkpt lat="44.74418" lon="5.06323">
        <ele>340</ele>
        <time>2007-12-03T14:01:32Z</time>
      </trkpt>
      <trkpt lat="44.74375" lon="5.0632">
        <ele>338</ele>
        <time>2007-12-03T14:01:41Z</time>
      </trkpt>
      <trkpt lat="44.74338" lon="5.06323">
        <ele>335</ele>
        <time>2007-12-03T14:01:46Z</time>
      </trkpt>
      <trkpt lat="44.74302" lon="5.06335">
        <ele>331</ele>
        <time>2007-12-03T14:01:51Z</time>
      </trkpt>
      <trkpt lat="44.74269" lon="5.06329">
        <ele>334</ele>
        <time>2007-12-03T14:01:57Z</time>
      </trkpt>
      <trkpt lat="44.74265" lon="5.06329">
        <ele>334</ele>
        <time>2007-12-03T14:01:58Z</time>
      </trkpt>
      <trkpt lat="44.7424" lon="5.06337">
        <ele>336</ele>
        <time>2007-12-03T14:02:09Z</time>
      </trkpt>
      <trkpt lat="44.74237" lon="5.06337">
        <ele>336</ele>
        <time>2007-12-03T14:02:10Z</time>
      </trkpt>
      <trkpt lat="44.74211" lon="5.06336">
        <ele>339</ele>
        <time>2007-12-03T14:02:20Z</time>
      </trkpt>
      <trkpt lat="44.74209" lon="5.06336">
        <ele>339</ele>
        <time>2007-12-03T14:02:21Z</time>
      </trkpt>
      <trkpt lat="44.74197" lon="5.06333">
        <ele>340</ele>
        <time>2007-12-03T14:02:25Z</time>
      </trkpt>
      <trkpt lat="44.74179" lon="5.06329">
        <ele>341</ele>
        <time>2007-12-03T14:02:32Z</time>
      </trkpt>
      <trkpt lat="44.74168" lon="5.06327">
        <ele>341</ele>
        <time>2007-12-03T14:02:37Z</time>
      </trkpt>
      <trkpt lat="44.74146" lon="5.06321">
        <ele>343</ele>
        <time>2007-12-03T14:02:46Z</time>
      </trkpt>
      <trkpt lat="44.74111" lon="5.0631">
        <ele>345</ele>
        <time>2007-12-03T14:02:58Z</time>
      </trkpt>
      <trkpt lat="44.741" lon="5.06309">
        <ele>346</ele>
        <time>2007-12-03T14:03:09Z</time>
      </trkpt>
      <trkpt lat="44.7408" lon="5.06309">
        <ele>347</ele>
        <time>2007-12-03T14:05:14Z</time>
      </trkpt>
      <trkpt lat="44.74045" lon="5.06299">
        <ele>349</ele>
        <time>2007-12-03T14:05:28Z</time>
      </trkpt>
      <trkpt lat="44.74029" lon="5.06292">
        <ele>350</ele>
        <time>2007-12-03T14:05:40Z</time>
      </trkpt>
      <trkpt lat="44.74017" lon="5.06286">
        <ele>350</ele>
        <time>2007-12-03T14:05:48Z</time>
      </trkpt>
      <trkpt lat="44.74001" lon="5.06279">
        <ele>351</ele>
        <time>2007-12-03T14:05:52Z</time>
      </trkpt>
      <trkpt lat="44.73955" lon="5.06268">
        <ele>353</ele>
        <time>2007-12-03T14:06:03Z</time>
      </trkpt>
      <trkpt lat="44.73951" lon="5.06267">
        <ele>353</ele>
        <time>2007-12-03T14:06:04Z</time>
      </trkpt>
      <trkpt lat="44.73905" lon="5.06257">
        <ele>356</ele>
        <time>2007-12-03T14:06:16Z</time>
      </trkpt>
      <trkpt lat="44.73851" lon="5.06251">
        <ele>357</ele>
        <time>2007-12-03T14:06:30Z</time>
      </trkpt>
      <trkpt lat="44.73814" lon="5.06247">
        <ele>358</ele>
        <time>2007-12-03T14:06:39Z</time>
      </trkpt>
      <trkpt lat="44.73776" lon="5.06233">
        <ele>357</ele>
        <time>2007-12-03T14:06:50Z</time>
      </trkpt>
      <trkpt lat="44.73732" lon="5.06229">
        <ele>356</ele>
        <time>2007-12-03T14:07:00Z</time>
      </trkpt>
      <trkpt lat="44.73684" lon="5.06227">
        <ele>356</ele>
        <time>2007-12-03T14:07:10Z</time>
      </trkpt>
      <trkpt lat="44.73676" lon="5.06229">
        <ele>356</ele>
        <time>2007-12-03T14:07:17Z</time>
      </trkpt>
      <trkpt lat="44.73677" lon="5.06228">
        <ele>356</ele>
        <time>2007-12-03T14:07:34Z</time>
      </trkpt>
      <trkpt lat="44.73678" lon="5.06228">
        <ele>356</ele>
        <time>2007-12-03T14:09:36Z</time>
      </trkpt>
      <trkpt lat="44.73672" lon="5.06228">
        <ele>356</ele>
        <time>2007-12-03T14:09:40Z</time>
      </trkpt>
      <trkpt lat="44.73649" lon="5.06222">
        <ele>356</ele>
        <time>2007-12-03T14:09:46Z</time>
      </trkpt>
      <trkpt lat="44.73619" lon="5.06201">
        <ele>352</ele>
        <time>2007-12-03T14:09:55Z</time>
      </trkpt>
      <trkpt lat="44.73601" lon="5.06189">
        <ele>350</ele>
        <time>2007-12-03T14:10:03Z</time>
      </trkpt>
      <trkpt lat="44.73601" lon="5.0619">
        <ele>351</ele>
        <time>2007-12-03T14:10:11Z</time>
      </trkpt>
      <trkpt lat="44.73586" lon="5.06185">
        <ele>350</ele>
        <time>2007-12-03T14:10:18Z</time>
      </trkpt>
      <trkpt lat="44.73522" lon="5.06168">
        <ele>350</ele>
        <time>2007-12-03T14:10:30Z</time>
      </trkpt>
      <trkpt lat="44.73508" lon="5.06159">
        <ele>350</ele>
        <time>2007-12-03T14:10:33Z</time>
      </trkpt>
      <trkpt lat="44.73495" lon="5.06151">
        <ele>350</ele>
        <time>2007-12-03T14:10:36Z</time>
      </trkpt>
      <trkpt lat="44.73478" lon="5.06138">
        <ele>349</ele>
        <time>2007-12-03T14:10:40Z</time>
      </trkpt>
      <trkpt lat="44.73459" lon="5.06126">
        <ele>350</ele>
        <time>2007-12-03T14:10:44Z</time>
      </trkpt>
      <trkpt lat="44.73428" lon="5.06083">
        <ele>350</ele>
        <time>2007-12-03T14:10:55Z</time>
      </trkpt>
      <trkpt lat="44.73423" lon="5.06073">
        <ele>350</ele>
        <time>2007-12-03T14:11:03Z</time>
      </trkpt>
      <trkpt lat="44.73398" lon="5.06056">
        <ele>349</ele>
        <time>2007-12-03T14:12:13Z</time>
      </trkpt>
      <trkpt lat="44.73393" lon="5.06052">
        <ele>348</ele>
        <time>2007-12-03T14:12:14Z</time>
      </trkpt>
      <trkpt lat="44.73379" lon="5.06041">
        <ele>347</ele>
        <time>2007-12-03T14:12:17Z</time>
      </trkpt>
      <trkpt lat="44.73324" lon="5.06013">
        <ele>343</ele>
        <time>2007-12-03T14:12:26Z</time>
      </trkpt>
      <trkpt lat="44.73311" lon="5.06006">
        <ele>343</ele>
        <time>2007-12-03T14:12:29Z</time>
      </trkpt>
      <trkpt lat="44.73276" lon="5.05968">
        <ele>341</ele>
        <time>2007-12-03T14:12:40Z</time>
      </trkpt>
      <trkpt lat="44.73262" lon="5.05941">
        <ele>339</ele>
        <time>2007-12-03T14:12:49Z</time>
      </trkpt>
      <trkpt lat="44.73259" lon="5.05936">
        <ele>339</ele>
        <time>2007-12-03T14:13:04Z</time>
      </trkpt>
      <trkpt lat="44.73239" lon="5.0592">
        <ele>339</ele>
        <time>2007-12-03T14:13:13Z</time>
      </trkpt>
      <trkpt lat="44.73238" lon="5.05909">
        <ele>338</ele>
        <time>2007-12-03T14:13:25Z</time>
      </trkpt>
      <trkpt lat="44.73237" lon="5.05908">
        <ele>338</ele>
        <time>2007-12-03T14:13:41Z</time>
      </trkpt>
      <trkpt lat="44.73233" lon="5.05884">
        <ele>337</ele>
        <time>2007-12-03T14:14:09Z</time>
      </trkpt>
      <trkpt lat="44.73218" lon="5.05852">
        <ele>334</ele>
        <time>2007-12-03T14:14:16Z</time>
      </trkpt>
      <trkpt lat="44.73211" lon="5.05833">
        <ele>332</ele>
        <time>2007-12-03T14:14:19Z</time>
      </trkpt>
      <trkpt lat="44.73198" lon="5.05787">
        <ele>331</ele>
        <time>2007-12-03T14:14:28Z</time>
      </trkpt>
      <trkpt lat="44.73198" lon="5.0577">
        <ele>331</ele>
        <time>2007-12-03T14:14:32Z</time>
      </trkpt>
      <trkpt lat="44.73198" lon="5.05764">
        <ele>331</ele>
        <time>2007-12-03T14:14:35Z</time>
      </trkpt>
      <trkpt lat="44.73196" lon="5.05752">
        <ele>332</ele>
        <time>2007-12-03T14:14:38Z</time>
      </trkpt>
      <trkpt lat="44.73197" lon="5.05745">
        <ele>332</ele>
        <time>2007-12-03T14:14:40Z</time>
      </trkpt>
      <trkpt lat="44.73198" lon="5.05742">
        <ele>331</ele>
        <time>2007-12-03T14:14:55Z</time>
      </trkpt>
      <trkpt lat="44.73199" lon="5.05737">
        <ele>332</ele>
        <time>2007-12-03T14:17:19Z</time>
      </trkpt>
      <trkpt lat="44.73195" lon="5.05729">
        <ele>333</ele>
        <time>2007-12-03T14:17:23Z</time>
      </trkpt>
      <trkpt lat="44.73176" lon="5.05691">
        <ele>337</ele>
        <time>2007-12-03T14:17:35Z</time>
      </trkpt>
      <trkpt lat="44.73169" lon="5.05668">
        <ele>336</ele>
        <time>2007-12-03T14:17:45Z</time>
      </trkpt>
      <trkpt lat="44.73167" lon="5.05655">
        <ele>335</ele>
        <time>2007-12-03T14:19:07Z</time>
      </trkpt>
      <trkpt lat="44.73165" lon="5.05646">
        <ele>334</ele>
        <time>2007-12-03T14:19:11Z</time>
      </trkpt>
      <trkpt lat="44.73162" lon="5.0564">
        <ele>334</ele>
        <time>2007-12-03T14:19:13Z</time>
      </trkpt>
      <trkpt lat="44.73159" lon="5.05628">
        <ele>333</ele>
        <time>2007-12-03T14:19:18Z</time>
      </trkpt>
      <trkpt lat="44.73152" lon="5.0561">
        <ele>331</ele>
        <time>2007-12-03T14:19:23Z</time>
      </trkpt>
      <trkpt lat="44.7315" lon="5.05604">
        <ele>331</ele>
        <time>2007-12-03T14:19:24Z</time>
      </trkpt>
      <trkpt lat="44.73141" lon="5.0558">
        <ele>327</ele>
        <time>2007-12-03T14:19:29Z</time>
      </trkpt>
      <trkpt lat="44.73139" lon="5.05575">
        <ele>326</ele>
        <time>2007-12-03T14:19:30Z</time>
      </trkpt>
      <trkpt lat="44.7313" lon="5.05553">
        <ele>324</ele>
        <time>2007-12-03T14:19:35Z</time>
      </trkpt>
      <trkpt lat="44.73128" lon="5.05549">
        <ele>323</ele>
        <time>2007-12-03T14:19:36Z</time>
      </trkpt>
      <trkpt lat="44.7312" lon="5.05526">
        <ele>320</ele>
        <time>2007-12-03T14:19:42Z</time>
      </trkpt>
      <trkpt lat="44.73118" lon="5.05522">
        <ele>319</ele>
        <time>2007-12-03T14:19:43Z</time>
      </trkpt>
      <trkpt lat="44.73114" lon="5.05516">
        <ele>319</ele>
        <time>2007-12-03T14:19:53Z</time>
      </trkpt>
      <trkpt lat="44.73101" lon="5.0549">
        <ele>317</ele>
        <time>2007-12-03T14:20:03Z</time>
      </trkpt>
      <trkpt lat="44.73091" lon="5.05468">
        <ele>313</ele>
        <time>2007-12-03T14:20:07Z</time>
      </trkpt>
      <trkpt lat="44.7309" lon="5.05461">
        <ele>312</ele>
        <time>2007-12-03T14:20:08Z</time>
      </trkpt>
      <trkpt lat="44.73083" lon="5.05439">
        <ele>308</ele>
        <time>2007-12-03T14:20:11Z</time>
      </trkpt>
      <trkpt lat="44.73077" lon="5.05418">
        <ele>305</ele>
        <time>2007-12-03T14:20:14Z</time>
      </trkpt>
      <trkpt lat="44.73075" lon="5.05412">
        <ele>304</ele>
        <time>2007-12-03T14:20:15Z</time>
      </trkpt>
      <trkpt lat="44.73071" lon="5.054">
        <ele>302</ele>
        <time>2007-12-03T14:20:17Z</time>
      </trkpt>
      <trkpt lat="44.73067" lon="5.05388">
        <ele>301</ele>
        <time>2007-12-03T14:20:19Z</time>
      </trkpt>
      <trkpt lat="44.73061" lon="5.05367">
        <ele>297</ele>
        <time>2007-12-03T14:20:23Z</time>
      </trkpt>
      <trkpt lat="44.73052" lon="5.05336">
        <ele>293</ele>
        <time>2007-12-03T14:20:30Z</time>
      </trkpt>
      <trkpt lat="44.73051" lon="5.05332">
        <ele>292</ele>
        <time>2007-12-03T14:20:31Z</time>
      </trkpt>
      <trkpt lat="44.73058" lon="5.05307">
        <ele>290</ele>
        <time>2007-12-03T14:20:37Z</time>
      </trkpt>
      <trkpt lat="44.73059" lon="5.05301">
        <ele>289</ele>
        <time>2007-12-03T14:20:38Z</time>
      </trkpt>
      <trkpt lat="44.73064" lon="5.05287">
        <ele>289</ele>
        <time>2007-12-03T14:20:41Z</time>
      </trkpt>
      <trkpt lat="44.73089" lon="5.05216">
        <ele>285</ele>
        <time>2007-12-03T14:20:54Z</time>
      </trkpt>
      <trkpt lat="44.73098" lon="5.05192">
        <ele>285</ele>
        <time>2007-12-03T14:20:59Z</time>
      </trkpt>
      <trkpt lat="44.731" lon="5.05187">
        <ele>285</ele>
        <time>2007-12-03T14:21:00Z</time>
      </trkpt>
      <trkpt lat="44.73112" lon="5.05127">
        <ele>288</ele>
        <time>2007-12-03T14:21:13Z</time>
      </trkpt>
      <trkpt lat="44.73118" lon="5.05064">
        <ele>288</ele>
        <time>2007-12-03T14:21:25Z</time>
      </trkpt>
      <trkpt lat="44.73109" lon="5.05018">
        <ele>286</ele>
        <time>2007-12-03T14:21:35Z</time>
      </trkpt>
      <trkpt lat="44.73105" lon="5.05006">
        <ele>286</ele>
        <time>2007-12-03T14:21:38Z</time>
      </trkpt>
      <trkpt lat="44.73101" lon="5.04991">
        <ele>285</ele>
        <time>2007-12-03T14:21:41Z</time>
      </trkpt>
      <trkpt lat="44.73105" lon="5.04963">
        <ele>284</ele>
        <time>2007-12-03T14:21:46Z</time>
      </trkpt>
      <trkpt lat="44.73113" lon="5.04947">
        <ele>283</ele>
        <time>2007-12-03T14:21:49Z</time>
      </trkpt>
      <trkpt lat="44.73125" lon="5.04935">
        <ele>282</ele>
        <time>2007-12-03T14:21:52Z</time>
      </trkpt>
      <trkpt lat="44.7313" lon="5.04917">
        <ele>280</ele>
        <time>2007-12-03T14:21:56Z</time>
      </trkpt>
      <trkpt lat="44.73137" lon="5.04887">
        <ele>277</ele>
        <time>2007-12-03T14:22:01Z</time>
      </trkpt>
      <trkpt lat="44.73142" lon="5.04866">
        <ele>274</ele>
        <time>2007-12-03T14:22:04Z</time>
      </trkpt>
      <trkpt lat="44.7313" lon="5.04846">
        <ele>274</ele>
        <time>2007-12-03T14:22:08Z</time>
      </trkpt>
      <trkpt lat="44.73118" lon="5.04834">
        <ele>273</ele>
        <time>2007-12-03T14:22:14Z</time>
      </trkpt>
      <trkpt lat="44.73122" lon="5.04796">
        <ele>269</ele>
        <time>2007-12-03T14:22:25Z</time>
      </trkpt>
      <trkpt lat="44.73124" lon="5.04791">
        <ele>269</ele>
        <time>2007-12-03T14:22:26Z</time>
      </trkpt>
      <trkpt lat="44.73138" lon="5.04773">
        <ele>266</ele>
        <time>2007-12-03T14:22:33Z</time>
      </trkpt>
      <trkpt lat="44.7314" lon="5.04772">
        <ele>266</ele>
        <time>2007-12-03T14:22:34Z</time>
      </trkpt>
      <trkpt lat="44.73141" lon="5.04748">
        <ele>264</ele>
        <time>2007-12-03T14:22:41Z</time>
      </trkpt>
      <trkpt lat="44.73141" lon="5.04737">
        <ele>263</ele>
        <time>2007-12-03T14:22:45Z</time>
      </trkpt>
      <trkpt lat="44.7314" lon="5.04733">
        <ele>263</ele>
        <time>2007-12-03T14:22:47Z</time>
      </trkpt>
      <trkpt lat="44.7314" lon="5.04708">
        <ele>263</ele>
        <time>2007-12-03T14:22:53Z</time>
      </trkpt>
      <trkpt lat="44.73137" lon="5.04672">
        <ele>262</ele>
        <time>2007-12-03T14:22:57Z</time>
      </trkpt>
      <trkpt lat="44.73129" lon="5.04643">
        <ele>261</ele>
        <time>2007-12-03T14:23:00Z</time>
      </trkpt>
      <trkpt lat="44.73124" lon="5.04636">
        <ele>261</ele>
        <time>2007-12-03T14:23:01Z</time>
      </trkpt>
      <trkpt lat="44.73114" lon="5.04622">
        <ele>260</ele>
        <time>2007-12-03T14:23:03Z</time>
      </trkpt>
      <trkpt lat="44.73093" lon="5.04589">
        <ele>257</ele>
        <time>2007-12-03T14:23:08Z</time>
      </trkpt>
      <trkpt lat="44.73083" lon="5.04572">
        <ele>256</ele>
        <time>2007-12-03T14:23:11Z</time>
      </trkpt>
      <trkpt lat="44.73069" lon="5.0454">
        <ele>251</ele>
        <time>2007-12-03T14:23:15Z</time>
      </trkpt>
      <trkpt lat="44.73066" lon="5.04531">
        <ele>250</ele>
        <time>2007-12-03T14:23:16Z</time>
      </trkpt>
      <trkpt lat="44.73045" lon="5.04499">
        <ele>245</ele>
        <time>2007-12-03T14:23:20Z</time>
      </trkpt>
      <trkpt lat="44.73034" lon="5.04484">
        <ele>242</ele>
        <time>2007-12-03T14:23:22Z</time>
      </trkpt>
      <trkpt lat="44.73021" lon="5.04465">
        <ele>239</ele>
        <time>2007-12-03T14:23:25Z</time>
      </trkpt>
      <trkpt lat="44.73013" lon="5.04453">
        <ele>236</ele>
        <time>2007-12-03T14:23:27Z</time>
      </trkpt>
      <trkpt lat="44.72999" lon="5.04432">
        <ele>233</ele>
        <time>2007-12-03T14:23:31Z</time>
      </trkpt>
      <trkpt lat="44.72992" lon="5.04424">
        <ele>232</ele>
        <time>2007-12-03T14:23:33Z</time>
      </trkpt>
      <trkpt lat="44.72986" lon="5.04415">
        <ele>231</ele>
        <time>2007-12-03T14:23:35Z</time>
      </trkpt>
      <trkpt lat="44.72964" lon="5.04387">
        <ele>229</ele>
        <time>2007-12-03T14:23:41Z</time>
      </trkpt>
      <trkpt lat="44.72946" lon="5.04335">
        <ele>226</ele>
        <time>2007-12-03T14:23:48Z</time>
      </trkpt>
      <trkpt lat="44.72935" lon="5.04327">
        <ele>225</ele>
        <time>2007-12-03T14:23:50Z</time>
      </trkpt>
      <trkpt lat="44.72854" lon="5.04285">
        <ele>226</ele>
        <time>2007-12-03T14:24:03Z</time>
      </trkpt>
      <trkpt lat="44.72783" lon="5.04248">
        <ele>226</ele>
        <time>2007-12-03T14:24:15Z</time>
      </trkpt>
      <trkpt lat="44.72737" lon="5.04205">
        <ele>225</ele>
        <time>2007-12-03T14:24:24Z</time>
      </trkpt>
      <trkpt lat="44.72704" lon="5.04141">
        <ele>222</ele>
        <time>2007-12-03T14:24:31Z</time>
      </trkpt>
      <trkpt lat="44.72684" lon="5.04107">
        <ele>220</ele>
        <time>2007-12-03T14:24:34Z</time>
      </trkpt>
      <trkpt lat="44.72668" lon="5.04084">
        <ele>218</ele>
        <time>2007-12-03T14:24:36Z</time>
      </trkpt>
      <trkpt lat="44.7265" lon="5.0405">
        <ele>216</ele>
        <time>2007-12-03T14:24:39Z</time>
      </trkpt>
      <trkpt lat="44.72644" lon="5.04027">
        <ele>214</ele>
        <time>2007-12-03T14:24:42Z</time>
      </trkpt>
      <trkpt lat="44.72634" lon="5.04002">
        <ele>212</ele>
        <time>2007-12-03T14:24:46Z</time>
      </trkpt>
      <trkpt lat="44.72591" lon="5.03943">
        <ele>207</ele>
        <time>2007-12-03T14:24:59Z</time>
      </trkpt>
      <trkpt lat="44.72541" lon="5.03886">
        <ele>203</ele>
        <time>2007-12-03T14:25:10Z</time>
      </trkpt>
      <trkpt lat="44.72535" lon="5.03865">
        <ele>202</ele>
        <time>2007-12-03T14:25:14Z</time>
      </trkpt>
      <trkpt lat="44.72535" lon="5.03859">
        <ele>202</ele>
        <time>2007-12-03T14:25:16Z</time>
      </trkpt>
      <trkpt lat="44.72533" lon="5.03853">
        <ele>201</ele>
        <time>2007-12-03T14:25:18Z</time>
      </trkpt>
      <trkpt lat="44.72531" lon="5.03849">
        <ele>201</ele>
        <time>2007-12-03T14:25:19Z</time>
      </trkpt>
      <trkpt lat="44.72521" lon="5.03836">
        <ele>201</ele>
        <time>2007-12-03T14:25:22Z</time>
      </trkpt>
      <trkpt lat="44.72516" lon="5.03832">
        <ele>200</ele>
        <time>2007-12-03T14:25:23Z</time>
      </trkpt>
      <trkpt lat="44.72502" lon="5.03821">
        <ele>200</ele>
        <time>2007-12-03T14:25:26Z</time>
      </trkpt>
      <trkpt lat="44.72498" lon="5.03817">
        <ele>200</ele>
        <time>2007-12-03T14:25:27Z</time>
      </trkpt>
      <trkpt lat="44.72474" lon="5.03829">
        <ele>199</ele>
        <time>2007-12-03T14:25:34Z</time>
      </trkpt>
      <trkpt lat="44.72461" lon="5.03826">
        <ele>199</ele>
        <time>2007-12-03T14:25:37Z</time>
      </trkpt>
      <trkpt lat="44.72398" lon="5.03762">
        <ele>196</ele>
        <time>2007-12-03T14:25:50Z</time>
      </trkpt>
      <trkpt lat="44.72321" lon="5.0368">
        <ele>194</ele>
        <time>2007-12-03T14:26:05Z</time>
      </trkpt>
      <trkpt lat="44.7229" lon="5.03649">
        <ele>192</ele>
        <time>2007-12-03T14:26:11Z</time>
      </trkpt>
      <trkpt lat="44.72285" lon="5.03639">
        <ele>191</ele>
      </trkpt>
      <trkpt lat="44.72287" lon="5.03625">
        <ele>191</ele>
        <time>2007-12-03T14:26:15Z</time>
      </trkpt>
      <trkpt lat="44.72294" lon="5.03614">
        <ele>191</ele>
        <time>2007-12-03T14:26:17Z</time>
      </trkpt>
      <trkpt lat="44.72297" lon="5.03607">
        <ele>191</ele>
        <time>2007-12-03T14:26:18Z</time>
      </trkpt>
      <trkpt lat="44.72313" lon="5.03574">
        <ele>191</ele>
        <time>2007-12-03T14:26:23Z</time>
      </trkpt>
      <trkpt lat="44.7235" lon="5.03502">
        <ele>190</ele>
        <time>2007-12-03T14:26:33Z</time>
      </trkpt>
      <trkpt lat="44.72364" lon="5.03455">
        <ele>190</ele>
        <time>2007-12-03T14:26:39Z</time>
      </trkpt>
      <trkpt lat="44.72379" lon="5.03426">
        <ele>190</ele>
        <time>2007-12-03T14:26:43Z</time>
      </trkpt>
      <trkpt lat="44.72379" lon="5.03395">
        <ele>189</ele>
        <time>2007-12-03T14:26:47Z</time>
      </trkpt>
      <trkpt lat="44.72374" lon="5.03367">
        <ele>189</ele>
        <time>2007-12-03T14:26:53Z</time>
      </trkpt>
      <trkpt lat="44.72374" lon="5.03365">
        <ele>189</ele>
        <time>2007-12-03T14:26:55Z</time>
      </trkpt>
      <trkpt lat="44.72373" lon="5.03366">
        <ele>189</ele>
        <time>2007-12-03T14:26:57Z</time>
      </trkpt>
      <trkpt lat="44.72372" lon="5.03364">
        <ele>189</ele>
        <time>2007-12-03T14:27:19Z</time>
      </trkpt>
      <trkpt lat="44.72374" lon="5.03365">
        <ele>189</ele>
        <time>2007-12-03T14:30:43Z</time>
      </trkpt>
      <trkpt lat="44.72377" lon="5.03344">
        <ele>189</ele>
        <time>2007-12-03T14:30:49Z</time>
      </trkpt>
      <trkpt lat="44.72374" lon="5.03329">
        <ele>188</ele>
        <time>2007-12-03T14:30:52Z</time>
      </trkpt>
      <trkpt lat="44.72371" lon="5.03304">
        <ele>188</ele>
        <time>2007-12-03T14:30:56Z</time>
      </trkpt>
      <trkpt lat="44.72371" lon="5.03284">
        <ele>188</ele>
        <time>2007-12-03T14:30:59Z</time>
      </trkpt>
      <trkpt lat="44.72384" lon="5.03247">
        <ele>187</ele>
        <time>2007-12-03T14:31:06Z</time>
      </trkpt>
      <trkpt lat="44.72385" lon="5.03237">
        <ele>187</ele>
        <time>2007-12-03T14:31:08Z</time>
      </trkpt>
      <trkpt lat="44.72371" lon="5.03208">
        <ele>187</ele>
        <time>2007-12-03T14:31:17Z</time>
      </trkpt>
      <trkpt lat="44.72372" lon="5.03204">
        <ele>187</ele>
        <time>2007-12-03T14:31:21Z</time>
      </trkpt>
      <trkpt lat="44.72376" lon="5.03194">
        <ele>187</ele>
        <time>2007-12-03T14:31:25Z</time>
      </trkpt>
      <trkpt lat="44.72386" lon="5.03172">
        <ele>187</ele>
        <time>2007-12-03T14:31:32Z</time>
      </trkpt>
      <trkpt lat="44.72395" lon="5.03153">
        <ele>187</ele>
        <time>2007-12-03T14:31:37Z</time>
      </trkpt>
      <trkpt lat="44.72403" lon="5.03132">
        <ele>186</ele>
        <time>2007-12-03T14:31:41Z</time>
      </trkpt>
      <trkpt lat="44.7241" lon="5.03117">
        <ele>186</ele>
        <time>2007-12-03T14:31:44Z</time>
      </trkpt>
      <trkpt lat="44.7242" lon="5.03083">
        <ele>185</ele>
        <time>2007-12-03T14:31:51Z</time>
      </trkpt>
      <trkpt lat="44.72425" lon="5.03067">
        <ele>185</ele>
        <time>2007-12-03T14:31:54Z</time>
      </trkpt>
      <trkpt lat="44.72433" lon="5.03049">
        <ele>185</ele>
        <time>2007-12-03T14:31:58Z</time>
      </trkpt>
      <trkpt lat="44.72439" lon="5.03039">
        <ele>185</ele>
        <time>2007-12-03T14:32:00Z</time>
      </trkpt>
      <trkpt lat="44.72475" lon="5.02963">
        <ele>185</ele>
        <time>2007-12-03T14:32:10Z</time>
      </trkpt>
      <trkpt lat="44.72479" lon="5.02951">
        <ele>185</ele>
        <time>2007-12-03T14:32:12Z</time>
      </trkpt>
      <trkpt lat="44.72487" lon="5.02932">
        <ele>185</ele>
        <time>2007-12-03T14:32:15Z</time>
      </trkpt>
      <trkpt lat="44.72507" lon="5.02883">
        <ele>185</ele>
        <time>2007-12-03T14:32:19Z</time>
      </trkpt>
      <trkpt lat="44.72512" lon="5.02872">
        <ele>185</ele>
        <time>2007-12-03T14:32:21Z</time>
      </trkpt>
      <trkpt lat="44.7252" lon="5.02848">
        <ele>185</ele>
        <time>2007-12-03T14:32:25Z</time>
      </trkpt>
      <trkpt lat="44.72522" lon="5.02834">
        <ele>185</ele>
        <time>2007-12-03T14:32:27Z</time>
      </trkpt>
      <trkpt lat="44.72529" lon="5.0282">
        <ele>185</ele>
        <time>2007-12-03T14:32:29Z</time>
      </trkpt>
      <trkpt lat="44.72538" lon="5.02805">
        <ele>185</ele>
        <time>2007-12-03T14:32:32Z</time>
      </trkpt>
      <trkpt lat="44.72553" lon="5.02774">
        <ele>185</ele>
        <time>2007-12-03T14:32:40Z</time>
      </trkpt>
      <trkpt lat="44.72592" lon="5.0268">
        <ele>185</ele>
        <time>2007-12-03T14:32:55Z</time>
      </trkpt>
      <trkpt lat="44.72619" lon="5.0264">
        <ele>185</ele>
        <time>2007-12-03T14:33:07Z</time>
      </trkpt>
      <trkpt lat="44.72646" lon="5.02619">
        <ele>184</ele>
        <time>2007-12-03T14:33:13Z</time>
      </trkpt>
      <trkpt lat="44.72636" lon="5.02575">
        <ele>184</ele>
        <time>2007-12-03T14:33:19Z</time>
      </trkpt>
      <trkpt lat="44.72636" lon="5.02565">
        <ele>184</ele>
        <time>2007-12-03T14:33:22Z</time>
      </trkpt>
      <trkpt lat="44.72635" lon="5.02548">
        <ele>184</ele>
        <time>2007-12-03T14:33:24Z</time>
      </trkpt>
      <trkpt lat="44.72635" lon="5.02517">
        <ele>184</ele>
        <time>2007-12-03T14:33:29Z</time>
      </trkpt>
      <trkpt lat="44.72638" lon="5.0247">
        <ele>184</ele>
        <time>2007-12-03T14:33:35Z</time>
      </trkpt>
      <trkpt lat="44.72648" lon="5.02421">
        <ele>184</ele>
        <time>2007-12-03T14:33:38Z</time>
      </trkpt>
      <trkpt lat="44.72664" lon="5.0242">
        <ele>183</ele>
      </trkpt>
      <trkpt lat="44.72687" lon="5.02421">
        <ele>183</ele>
        <time>2007-12-03T14:33:47Z</time>
      </trkpt>
      <trkpt lat="44.72693" lon="5.02409">
        <ele>183</ele>
        <time>2007-12-03T14:33:50Z</time>
      </trkpt>
      <trkpt lat="44.72698" lon="5.02393">
        <ele>183</ele>
        <time>2007-12-03T14:33:53Z</time>
      </trkpt>
      <trkpt lat="44.72701" lon="5.02387">
        <ele>183</ele>
        <time>2007-12-03T14:34:03Z</time>
      </trkpt>
      <trkpt lat="44.72714" lon="5.02369">
        <ele>182</ele>
      </trkpt>
      <trkpt lat="44.72754" lon="5.02146">
        <ele>184</ele>
      </trkpt>
      <trkpt lat="44.72803" lon="5.01845">
        <ele>184</ele>
      </trkpt>
      <trkpt lat="44.72808" lon="5.01832">
        <ele>184</ele>
      </trkpt>
      <trkpt lat="44.72815" lon="5.01816">
        <ele>184</ele>
      </trkpt>
      <trkpt lat="44.72826" lon="5.01801">
        <ele>184</ele>
      </trkpt>
      <trkpt lat="44.72904" lon="5.01738">
        <ele>183</ele>
      </trkpt>
      <trkpt lat="44.73" lon="5.0166">
        <ele>183</ele>
      </trkpt>
      <trkpt lat="44.73006" lon="5.01655">
        <ele>183</ele>
      </trkpt>
      <trkpt lat="44.73013" lon="5.01622">
        <ele>183</ele>
        <time>2007-12-03T14:37:18Z</time>
      </trkpt>
    </trkseg>
  </trk>
</gpx>